FDX351 PANC-KMIA
Flight info
| Callsign | FDX351 |
|---|---|
| Flight time | 6h 58m |
| Altitude | 31000 |
| Route | ANCH1 JOH YAK J541 SSR 5726N13228W YXS/N0483F330 DESNU HASOS TIMMR FSD Q19 DSM J45 IRK FAM/N0486F350 J151 GETME VLKNN Q139 MGMRY ACORI FROGZ5 |
| Aircraft | B77L/H-SDE1E2E3FGHIJ2J3J4J5M1RWXY/LB1D1 |
Departure
| Time | 2026-05-07 03:26 |
|---|---|
| Airport | Ted Stevens Anchorage International Airport (PANC) |
Arrival
| Time | 2026-05-07 10:24 |
|---|---|
| Airport | Miami International Airport (KMIA) |
| Time | Latitude | Longitude | Altitude | Speed | Heading |
|---|---|---|---|---|---|
| 2026-05-07 02:58 | 61.18860 | -150.00208 | 119 ft | 0 kts | 256° |
| 2026-05-07 03:00 | 61.18861 | -150.00200 | 120 ft | 4 kts | 255° |
| 2026-05-07 03:00 | 61.18868 | -150.00164 | 119 ft | 2 kts | 242° |
| 2026-05-07 03:01 | 61.18878 | -150.00138 | 119 ft | 2 kts | 207° |
| 2026-05-07 03:01 | 61.18893 | -150.00127 | 117 ft | 3 kts | 178° |
| 2026-05-07 03:01 | 61.18912 | -150.00130 | 119 ft | 2 kts | 170° |
| 2026-05-07 03:01 | 61.18919 | -150.00133 | 117 ft | 2 kts | 165° |
| 2026-05-07 03:02 | 61.18923 | -150.00135 | 119 ft | 0 kts | 165° |
| 2026-05-07 03:09 | 61.18922 | -150.00135 | 119 ft | 0 kts | 165° |
| 2026-05-07 03:09 | 61.18914 | -150.00127 | 122 ft | 3 kts | 154° |
| 2026-05-07 03:09 | 61.18894 | -150.00087 | 114 ft | 6 kts | 132° |
| 2026-05-07 03:09 | 61.18853 | -150.00029 | 124 ft | 9 kts | 158° |
| 2026-05-07 03:10 | 61.18791 | -149.99987 | 121 ft | 9 kts | 167° |
| 2026-05-07 03:10 | 61.18734 | -150.00028 | 122 ft | 9 kts | 229° |
| 2026-05-07 03:10 | 61.18712 | -150.00154 | 123 ft | 9 kts | 255° |
| 2026-05-07 03:10 | 61.18698 | -150.00266 | 127 ft | 8 kts | 254° |
| 2026-05-07 03:11 | 61.18663 | -150.00343 | 124 ft | 8 kts | 201° |
| 2026-05-07 03:11 | 61.18609 | -150.00337 | 129 ft | 8 kts | 171° |
| 2026-05-07 03:11 | 61.18555 | -150.00310 | 126 ft | 8 kts | 165° |
| 2026-05-07 03:11 | 61.18498 | -150.00278 | 125 ft | 9 kts | 165° |
| 2026-05-07 03:12 | 61.18438 | -150.00242 | 125 ft | 9 kts | 163° |
| 2026-05-07 03:12 | 61.18375 | -150.00205 | 125 ft | 10 kts | 165° |
| 2026-05-07 03:12 | 61.18309 | -150.00169 | 122 ft | 10 kts | 165° |
| 2026-05-07 03:12 | 61.18242 | -150.00132 | 119 ft | 8 kts | 165° |
| 2026-05-07 03:13 | 61.18184 | -150.00101 | 116 ft | 9 kts | 166° |
| 2026-05-07 03:13 | 61.18124 | -150.00068 | 115 ft | 9 kts | 165° |
| 2026-05-07 03:13 | 61.18062 | -150.00032 | 124 ft | 10 kts | 164° |
| 2026-05-07 03:13 | 61.17996 | -149.99995 | 123 ft | 10 kts | 165° |
| 2026-05-07 03:14 | 61.17929 | -149.99956 | 120 ft | 10 kts | 165° |
| 2026-05-07 03:14 | 61.17859 | -149.99917 | 119 ft | 10 kts | 165° |
| 2026-05-07 03:14 | 61.17721 | -149.99841 | 119 ft | 10 kts | 165° |
| 2026-05-07 03:15 | 61.17652 | -149.99803 | 119 ft | 10 kts | 165° |
| 2026-05-07 03:15 | 61.17583 | -149.99764 | 122 ft | 10 kts | 165° |
| 2026-05-07 03:15 | 61.17514 | -149.99725 | 122 ft | 10 kts | 165° |
| 2026-05-07 03:15 | 61.17445 | -149.99686 | 120 ft | 10 kts | 165° |
| 2026-05-07 03:16 | 61.17376 | -149.99649 | 122 ft | 10 kts | 165° |
| 2026-05-07 03:16 | 61.17308 | -149.99609 | 125 ft | 10 kts | 164° |
| 2026-05-07 03:16 | 61.17239 | -149.99571 | 126 ft | 10 kts | 165° |
| 2026-05-07 03:16 | 61.17169 | -149.99532 | 125 ft | 10 kts | 164° |
| 2026-05-07 03:17 | 61.17127 | -149.99455 | 121 ft | 8 kts | 111° |
| 2026-05-07 03:17 | 61.17124 | -149.99316 | 119 ft | 11 kts | 89° |
| 2026-05-07 03:17 | 61.17125 | -149.99148 | 122 ft | 12 kts | 90° |
| 2026-05-07 03:17 | 61.17121 | -149.98966 | 115 ft | 13 kts | 94° |
| 2026-05-07 03:18 | 61.17117 | -149.98776 | 118 ft | 13 kts | 91° |
| 2026-05-07 03:18 | 61.17116 | -149.98602 | 120 ft | 12 kts | 90° |
| 2026-05-07 03:18 | 61.17117 | -149.98429 | 117 ft | 12 kts | 90° |
| 2026-05-07 03:18 | 61.17117 | -149.98255 | 117 ft | 12 kts | 90° |
| 2026-05-07 03:19 | 61.17118 | -149.98081 | 116 ft | 12 kts | 90° |
| 2026-05-07 03:19 | 61.17117 | -149.97905 | 114 ft | 13 kts | 90° |
| 2026-05-07 03:19 | 61.17117 | -149.97713 | 112 ft | 14 kts | 90° |
| 2026-05-07 03:19 | 61.17118 | -149.97504 | 110 ft | 15 kts | 88° |
| 2026-05-07 03:20 | 61.17125 | -149.97277 | 107 ft | 16 kts | 86° |
| 2026-05-07 03:20 | 61.17127 | -149.97100 | 104 ft | 12 kts | 89° |
| 2026-05-07 03:20 | 61.17128 | -149.96922 | 102 ft | 13 kts | 90° |
| 2026-05-07 03:20 | 61.17127 | -149.96744 | 101 ft | 12 kts | 90° |
| 2026-05-07 03:21 | 61.17127 | -149.96567 | 101 ft | 12 kts | 89° |
| 2026-05-07 03:21 | 61.17127 | -149.96392 | 101 ft | 12 kts | 90° |
| 2026-05-07 03:21 | 61.17128 | -149.96215 | 101 ft | 12 kts | 90° |
| 2026-05-07 03:21 | 61.17128 | -149.96036 | 101 ft | 12 kts | 90° |
| 2026-05-07 03:22 | 61.17128 | -149.95861 | 101 ft | 12 kts | 90° |
| 2026-05-07 03:22 | 61.17128 | -149.95685 | 101 ft | 12 kts | 90° |
| 2026-05-07 03:22 | 61.17128 | -149.95510 | 101 ft | 12 kts | 90° |
| 2026-05-07 03:22 | 61.17129 | -149.95334 | 101 ft | 12 kts | 90° |
| 2026-05-07 03:23 | 61.17129 | -149.95183 | 101 ft | 8 kts | 90° |
| 2026-05-07 03:23 | 61.17129 | -149.95068 | 101 ft | 8 kts | 90° |
| 2026-05-07 03:23 | 61.17129 | -149.94951 | 101 ft | 8 kts | 90° |
| 2026-05-07 03:23 | 61.17107 | -149.94851 | 101 ft | 8 kts | 142° |
| 2026-05-07 03:24 | 61.17052 | -149.94837 | 101 ft | 8 kts | 191° |
| 2026-05-07 03:24 | 61.17004 | -149.94897 | 107 ft | 8 kts | 226° |
| 2026-05-07 03:24 | 61.16985 | -149.94998 | 105 ft | 0 kts | 264° |
| 2026-05-07 03:25 | 61.16981 | -149.95361 | 105 ft | 60 kts | 270° |
| 2026-05-07 03:25 | 61.16981 | -149.96739 | 105 ft | 129 kts | 270° |
| 2026-05-07 03:25 | 61.16975 | -149.98961 | 131 ft | 179 kts | 269° |
| 2026-05-07 03:25 | 61.16992 | -150.01674 | 457 ft | 194 kts | 270° |
| 2026-05-07 03:26 | 61.17028 | -150.04481 | 1085 ft | 200 kts | 268° |
| 2026-05-07 03:26 | 61.17059 | -150.07433 | 1651 ft | 209 kts | 268° |
| 2026-05-07 03:26 | 61.17101 | -150.10538 | 2020 ft | 226 kts | 268° |
| 2026-05-07 03:26 | 61.17144 | -150.13896 | 2395 ft | 239 kts | 268° |
| 2026-05-07 03:27 | 61.17188 | -150.17420 | 2905 ft | 249 kts | 268° |
| 2026-05-07 03:27 | 61.17224 | -150.21066 | 3456 ft | 255 kts | 263° |
| 2026-05-07 03:27 | 61.16764 | -150.24504 | 4026 ft | 252 kts | 235° |
| 2026-05-07 03:27 | 61.15535 | -150.27007 | 4760 ft | 249 kts | 206° |
| 2026-05-07 03:28 | 61.13881 | -150.27990 | 5439 ft | 249 kts | 186° |
| 2026-05-07 03:28 | 61.12126 | -150.28253 | 6005 ft | 255 kts | 184° |
| 2026-05-07 03:28 | 61.10342 | -150.28445 | 6685 ft | 256 kts | 184° |
| 2026-05-07 03:28 | 61.08547 | -150.28620 | 7334 ft | 258 kts | 184° |
| 2026-05-07 03:29 | 61.06764 | -150.28790 | 7951 ft | 261 kts | 183° |
| 2026-05-07 03:29 | 61.04946 | -150.28559 | 8406 ft | 267 kts | 164° |
| 2026-05-07 03:29 | 61.03323 | -150.26649 | 8947 ft | 274 kts | 136° |
| 2026-05-07 03:29 | 61.02284 | -150.23347 | 9583 ft | 278 kts | 113° |
| 2026-05-07 03:30 | 61.01677 | -150.19523 | 10116 ft | 283 kts | 109° |
| 2026-05-07 03:30 | 61.01103 | -150.15530 | 10401 ft | 299 kts | 109° |
| 2026-05-07 03:30 | 61.00498 | -150.11288 | 10576 ft | 319 kts | 109° |
| 2026-05-07 03:30 | 60.99849 | -150.06755 | 10748 ft | 340 kts | 108° |
| 2026-05-07 03:31 | 60.99161 | -150.01959 | 10975 ft | 358 kts | 108° |
| 2026-05-07 03:31 | 60.98442 | -149.96963 | 11474 ft | 368 kts | 108° |
| 2026-05-07 03:31 | 60.97709 | -149.91864 | 12098 ft | 374 kts | 108° |
| 2026-05-07 03:31 | 60.96965 | -149.86694 | 12841 ft | 378 kts | 108° |
| 2026-05-07 03:32 | 60.96229 | -149.81489 | 13589 ft | 381 kts | 108° |
| 2026-05-07 03:32 | 60.95506 | -149.76197 | 14216 ft | 386 kts | 108° |
| 2026-05-07 03:32 | 60.94788 | -149.70890 | 14700 ft | 394 kts | 107° |
| 2026-05-07 03:32 | 60.94042 | -149.65390 | 15236 ft | 400 kts | 107° |
| 2026-05-07 03:33 | 60.93289 | -149.59860 | 15915 ft | 403 kts | 107° |
| 2026-05-07 03:33 | 60.92524 | -149.54279 | 16468 ft | 409 kts | 107° |
| 2026-05-07 03:33 | 60.91737 | -149.48586 | 16993 ft | 415 kts | 107° |
| 2026-05-07 03:33 | 60.90943 | -149.42856 | 17600 ft | 420 kts | 107° |
| 2026-05-07 03:34 | 60.90137 | -149.37054 | 18180 ft | 425 kts | 108° |
| 2026-05-07 03:34 | 60.89318 | -149.31190 | 18681 ft | 430 kts | 108° |
| 2026-05-07 03:34 | 60.88485 | -149.25247 | 19158 ft | 434 kts | 108° |
| 2026-05-07 03:34 | 60.87640 | -149.19243 | 19662 ft | 439 kts | 108° |
| 2026-05-07 03:35 | 60.86793 | -149.13267 | 20157 ft | 443 kts | 108° |
| 2026-05-07 03:35 | 60.85924 | -149.07133 | 20640 ft | 448 kts | 108° |
| 2026-05-07 03:35 | 60.85047 | -149.00961 | 21096 ft | 453 kts | 108° |
| 2026-05-07 03:35 | 60.84156 | -148.94727 | 21558 ft | 458 kts | 108° |
| 2026-05-07 03:36 | 60.83253 | -148.88429 | 22043 ft | 463 kts | 108° |
| 2026-05-07 03:36 | 60.82337 | -148.82064 | 22472 ft | 467 kts | 108° |
| 2026-05-07 03:36 | 60.81408 | -148.75646 | 22916 ft | 471 kts | 108° |
| 2026-05-07 03:36 | 60.80466 | -148.69174 | 23396 ft | 476 kts | 108° |
| 2026-05-07 03:37 | 60.79516 | -148.62648 | 23822 ft | 480 kts | 108° |
| 2026-05-07 03:37 | 60.78555 | -148.56065 | 24230 ft | 484 kts | 108° |
| 2026-05-07 03:37 | 60.77597 | -148.49540 | 24653 ft | 486 kts | 109° |
| 2026-05-07 03:37 | 60.76619 | -148.42897 | 25079 ft | 489 kts | 109° |
| 2026-05-07 03:38 | 60.75631 | -148.36223 | 25469 ft | 492 kts | 109° |
| 2026-05-07 03:38 | 60.74631 | -148.29500 | 25831 ft | 496 kts | 109° |
| 2026-05-07 03:38 | 60.73621 | -148.22736 | 26229 ft | 499 kts | 109° |
| 2026-05-07 03:38 | 60.72602 | -148.15929 | 26624 ft | 502 kts | 109° |
| 2026-05-07 03:39 | 60.71577 | -148.09117 | 27016 ft | 504 kts | 109° |
| 2026-05-07 03:39 | 60.70542 | -148.02262 | 27392 ft | 507 kts | 109° |
| 2026-05-07 03:39 | 60.69494 | -147.95350 | 27750 ft | 510 kts | 110° |
| 2026-05-07 03:39 | 60.68437 | -147.88407 | 28133 ft | 513 kts | 110° |
| 2026-05-07 03:40 | 60.67374 | -147.81449 | 28458 ft | 516 kts | 110° |
| 2026-05-07 03:40 | 60.66295 | -147.74420 | 28771 ft | 519 kts | 110° |
| 2026-05-07 03:40 | 60.65205 | -147.67348 | 28928 ft | 526 kts | 110° |
| 2026-05-07 03:40 | 60.64115 | -147.60309 | 29144 ft | 530 kts | 110° |
| 2026-05-07 03:41 | 60.63000 | -147.53132 | 29505 ft | 531 kts | 110° |
| 2026-05-07 03:41 | 60.61879 | -147.45941 | 29918 ft | 532 kts | 111° |
| 2026-05-07 03:41 | 60.60757 | -147.38773 | 30321 ft | 531 kts | 111° |
| 2026-05-07 03:41 | 60.59632 | -147.31610 | 30712 ft | 530 kts | 111° |
| 2026-05-07 03:42 | 60.58508 | -147.24491 | 31088 ft | 528 kts | 111° |
| 2026-05-07 03:42 | 60.56236 | -147.10199 | 31119 ft | 532 kts | 111° |
| 2026-05-07 03:43 | 60.53963 | -146.96005 | 31116 ft | 531 kts | 111° |
| 2026-05-07 03:43 | 60.51658 | -146.81731 | 31146 ft | 533 kts | 111° |
| 2026-05-07 03:44 | 60.49334 | -146.67431 | 31123 ft | 533 kts | 111° |
| 2026-05-07 03:44 | 60.47241 | -146.53010 | 31123 ft | 534 kts | 105° |
| 2026-05-07 03:45 | 60.45646 | -146.38292 | 31100 ft | 534 kts | 105° |
| 2026-05-07 03:45 | 60.44044 | -146.23606 | 31128 ft | 534 kts | 105° |
| 2026-05-07 03:46 | 60.42394 | -146.08922 | 31132 ft | 535 kts | 105° |
| 2026-05-07 03:46 | 60.40706 | -145.94215 | 31127 ft | 536 kts | 106° |
| 2026-05-07 03:47 | 60.39002 | -145.79529 | 31131 ft | 537 kts | 106° |
| 2026-05-07 03:47 | 60.37291 | -145.64918 | 31125 ft | 537 kts | 106° |
| 2026-05-07 03:48 | 60.35549 | -145.50195 | 31132 ft | 538 kts | 107° |
| 2026-05-07 03:48 | 60.33791 | -145.35493 | 31135 ft | 539 kts | 107° |
| 2026-05-07 03:49 | 60.32315 | -145.23257 | 31137 ft | 539 kts | 107° |
| 2026-05-07 03:49 | 60.30526 | -145.08565 | 31135 ft | 539 kts | 107° |
| 2026-05-07 03:50 | 60.28723 | -144.93899 | 31135 ft | 538 kts | 107° |
| 2026-05-07 03:50 | 60.26901 | -144.79236 | 31148 ft | 538 kts | 107° |
| 2026-05-07 03:51 | 60.25062 | -144.64597 | 31160 ft | 540 kts | 107° |
| 2026-05-07 03:51 | 60.23216 | -144.50028 | 31155 ft | 541 kts | 107° |
| 2026-05-07 03:52 | 60.21336 | -144.35329 | 31118 ft | 542 kts | 107° |
| 2026-05-07 03:52 | 60.19442 | -144.20659 | 31163 ft | 542 kts | 108° |
| 2026-05-07 03:53 | 60.17537 | -144.06087 | 31170 ft | 542 kts | 108° |
| 2026-05-07 03:53 | 60.15606 | -143.91431 | 31151 ft | 543 kts | 108° |
| 2026-05-07 03:54 | 60.13659 | -143.76784 | 31150 ft | 543 kts | 108° |
| 2026-05-07 03:54 | 60.11697 | -143.62170 | 31167 ft | 543 kts | 108° |
| 2026-05-07 03:55 | 60.09716 | -143.47553 | 31146 ft | 542 kts | 108° |
| 2026-05-07 03:55 | 60.07721 | -143.32962 | 31146 ft | 542 kts | 109° |
| 2026-05-07 03:56 | 60.05727 | -143.18519 | 31176 ft | 541 kts | 109° |
| 2026-05-07 03:56 | 60.03704 | -143.04004 | 31160 ft | 541 kts | 109° |
| 2026-05-07 03:57 | 60.01668 | -142.89518 | 31167 ft | 541 kts | 109° |
| 2026-05-07 03:57 | 59.99612 | -142.75024 | 31170 ft | 542 kts | 109° |
| 2026-05-07 03:58 | 59.97541 | -142.60554 | 31170 ft | 542 kts | 109° |
| 2026-05-07 03:58 | 59.95451 | -142.46086 | 31167 ft | 543 kts | 109° |
| 2026-05-07 03:59 | 59.93344 | -142.31618 | 31147 ft | 543 kts | 110° |
| 2026-05-07 03:59 | 59.91236 | -142.17273 | 31170 ft | 543 kts | 110° |
| 2026-05-07 04:00 | 59.89094 | -142.02825 | 31179 ft | 543 kts | 110° |
| 2026-05-07 04:00 | 59.86935 | -141.88386 | 31183 ft | 544 kts | 110° |
| 2026-05-07 04:01 | 59.84762 | -141.73973 | 31186 ft | 544 kts | 110° |
| 2026-05-07 04:01 | 59.82572 | -141.59575 | 31185 ft | 543 kts | 110° |
| 2026-05-07 04:02 | 59.80381 | -141.45289 | 31185 ft | 543 kts | 110° |
| 2026-05-07 04:02 | 59.78158 | -141.30920 | 31184 ft | 543 kts | 111° |
| 2026-05-07 04:03 | 59.75924 | -141.16597 | 31181 ft | 544 kts | 111° |
| 2026-05-07 04:03 | 59.73673 | -141.02279 | 31170 ft | 543 kts | 111° |
| 2026-05-07 04:04 | 59.71421 | -140.88078 | 31190 ft | 545 kts | 111° |
| 2026-05-07 04:04 | 59.69129 | -140.73747 | 31194 ft | 547 kts | 111° |
| 2026-05-07 04:05 | 59.66811 | -140.59369 | 31215 ft | 549 kts | 111° |
| 2026-05-07 04:05 | 59.64470 | -140.44956 | 31199 ft | 550 kts | 111° |
| 2026-05-07 04:06 | 59.62111 | -140.30557 | 31200 ft | 551 kts | 111° |
| 2026-05-07 04:06 | 59.59747 | -140.16232 | 31213 ft | 552 kts | 111° |
| 2026-05-07 04:07 | 59.57354 | -140.01854 | 31210 ft | 552 kts | 111° |
| 2026-05-07 04:07 | 59.54943 | -139.87484 | 31207 ft | 551 kts | 111° |
| 2026-05-07 04:08 | 59.52524 | -139.73159 | 31178 ft | 550 kts | 112° |
| 2026-05-07 04:08 | 59.49703 | -139.59240 | 31211 ft | 542 kts | 122° |
| 2026-05-07 04:09 | 59.46037 | -139.46329 | 31219 ft | 540 kts | 124° |
| 2026-05-07 04:09 | 59.42681 | -139.34550 | 31224 ft | 541 kts | 124° |
| 2026-05-07 04:10 | 59.39101 | -139.21850 | 31227 ft | 542 kts | 123° |
| 2026-05-07 04:10 | 59.35487 | -139.09011 | 31228 ft | 541 kts | 124° |
| 2026-05-07 04:11 | 59.31832 | -138.96107 | 31233 ft | 541 kts | 124° |
| 2026-05-07 04:11 | 59.28157 | -138.83222 | 31232 ft | 541 kts | 124° |
| 2026-05-07 04:12 | 59.24478 | -138.70401 | 31237 ft | 541 kts | 124° |
| 2026-05-07 04:12 | 59.20804 | -138.57666 | 31232 ft | 540 kts | 124° |
| 2026-05-07 04:13 | 59.17101 | -138.44903 | 31272 ft | 541 kts | 124° |
| 2026-05-07 04:13 | 59.13370 | -138.32116 | 31261 ft | 544 kts | 124° |
| 2026-05-07 04:14 | 59.09608 | -138.19288 | 31258 ft | 547 kts | 124° |
| 2026-05-07 04:14 | 59.05820 | -138.06415 | 31207 ft | 548 kts | 125° |
| 2026-05-07 04:15 | 59.02012 | -137.93608 | 31252 ft | 547 kts | 124° |
| 2026-05-07 04:15 | 58.98207 | -137.80824 | 31251 ft | 546 kts | 124° |
| 2026-05-07 04:16 | 58.94395 | -137.68105 | 31262 ft | 545 kts | 125° |
| 2026-05-07 04:16 | 58.90581 | -137.55421 | 31267 ft | 546 kts | 124° |
| 2026-05-07 04:17 | 58.86768 | -137.42801 | 31236 ft | 545 kts | 125° |
| 2026-05-07 04:17 | 58.82919 | -137.30196 | 31223 ft | 543 kts | 125° |
| 2026-05-07 04:18 | 58.79071 | -137.17678 | 31223 ft | 541 kts | 125° |
| 2026-05-07 04:18 | 58.75235 | -137.05165 | 31172 ft | 542 kts | 125° |
| 2026-05-07 04:19 | 58.71406 | -136.92813 | 31225 ft | 539 kts | 125° |
| 2026-05-07 04:19 | 58.67568 | -136.80449 | 31237 ft | 539 kts | 125° |
| 2026-05-07 04:20 | 58.63709 | -136.68087 | 31241 ft | 540 kts | 125° |
| 2026-05-07 04:20 | 58.59832 | -136.55756 | 31237 ft | 539 kts | 125° |
| 2026-05-07 04:21 | 58.54016 | -136.37352 | 31235 ft | 538 kts | 125° |
| 2026-05-07 04:21 | 58.50121 | -136.25116 | 31238 ft | 539 kts | 126° |
| 2026-05-07 04:22 | 58.46212 | -136.12874 | 31258 ft | 540 kts | 126° |
| 2026-05-07 04:22 | 58.42307 | -136.00709 | 31230 ft | 541 kts | 126° |
| 2026-05-07 04:23 | 58.38349 | -135.88428 | 31261 ft | 539 kts | 126° |
| 2026-05-07 04:23 | 58.34441 | -135.76383 | 31258 ft | 537 kts | 126° |
| 2026-05-07 04:24 | 58.30488 | -135.64307 | 31266 ft | 536 kts | 126° |
| 2026-05-07 04:24 | 58.26539 | -135.52297 | 31278 ft | 535 kts | 126° |
| 2026-05-07 04:25 | 58.22595 | -135.40346 | 31269 ft | 533 kts | 127° |
| 2026-05-07 04:25 | 58.18674 | -135.28518 | 31275 ft | 532 kts | 126° |
| 2026-05-07 04:26 | 58.15218 | -135.16058 | 31286 ft | 536 kts | 119° |
| 2026-05-07 04:26 | 58.12047 | -135.03238 | 31277 ft | 537 kts | 119° |
| 2026-05-07 04:27 | 58.08845 | -134.90468 | 31267 ft | 538 kts | 120° |
| 2026-05-07 04:27 | 58.05612 | -134.77791 | 31281 ft | 539 kts | 120° |
| 2026-05-07 04:28 | 58.02325 | -134.65017 | 31263 ft | 541 kts | 121° |
| 2026-05-07 04:28 | 57.99023 | -134.52269 | 31273 ft | 541 kts | 120° |
| 2026-05-07 04:29 | 57.95734 | -134.39549 | 31256 ft | 540 kts | 121° |
| 2026-05-07 04:29 | 57.92418 | -134.26854 | 31278 ft | 541 kts | 121° |
| 2026-05-07 04:30 | 57.89076 | -134.14150 | 31276 ft | 542 kts | 121° |
| 2026-05-07 04:30 | 57.85741 | -134.01534 | 31269 ft | 543 kts | 121° |
| 2026-05-07 04:31 | 57.82373 | -133.88854 | 31240 ft | 541 kts | 121° |
| 2026-05-07 04:31 | 57.79001 | -133.76222 | 31285 ft | 542 kts | 122° |
| 2026-05-07 04:32 | 57.75621 | -133.63644 | 31299 ft | 544 kts | 122° |
| 2026-05-07 04:32 | 57.72204 | -133.51001 | 31298 ft | 545 kts | 122° |
| 2026-05-07 04:33 | 57.68766 | -133.38343 | 31303 ft | 546 kts | 122° |
| 2026-05-07 04:33 | 57.65317 | -133.25716 | 31301 ft | 545 kts | 122° |
| 2026-05-07 04:34 | 57.61859 | -133.13125 | 31326 ft | 544 kts | 122° |
| 2026-05-07 04:34 | 57.58389 | -133.00568 | 31308 ft | 544 kts | 122° |
| 2026-05-07 04:35 | 57.54925 | -132.88069 | 31285 ft | 542 kts | 122° |
| 2026-05-07 04:35 | 57.51435 | -132.75602 | 31298 ft | 541 kts | 122° |
| 2026-05-07 04:36 | 57.47953 | -132.63181 | 31281 ft | 541 kts | 122° |
| 2026-05-07 04:36 | 57.44468 | -132.50816 | 31291 ft | 539 kts | 122° |
| 2026-05-07 04:37 | 57.41566 | -132.40604 | 31297 ft | 538 kts | 122° |
| 2026-05-07 04:37 | 57.37482 | -132.26363 | 31270 ft | 537 kts | 122° |
| 2026-05-07 04:38 | 57.34557 | -132.16216 | 31263 ft | 537 kts | 123° |
| 2026-05-07 04:38 | 57.31029 | -132.04028 | 31272 ft | 537 kts | 123° |
| 2026-05-07 04:39 | 57.27493 | -131.91867 | 31261 ft | 537 kts | 123° |
| 2026-05-07 04:39 | 57.23946 | -131.79696 | 31259 ft | 539 kts | 123° |
| 2026-05-07 04:40 | 57.20369 | -131.67524 | 31248 ft | 539 kts | 123° |
| 2026-05-07 04:40 | 57.16821 | -131.55469 | 31308 ft | 536 kts | 123° |
| 2026-05-07 04:41 | 57.13232 | -131.43404 | 31269 ft | 537 kts | 123° |
| 2026-05-07 04:41 | 57.09637 | -131.31372 | 31274 ft | 537 kts | 123° |
| 2026-05-07 04:42 | 57.06015 | -131.19364 | 31272 ft | 536 kts | 123° |
| 2026-05-07 04:42 | 57.02406 | -131.07348 | 31247 ft | 538 kts | 123° |
| 2026-05-07 04:43 | 56.98773 | -130.95323 | 31251 ft | 538 kts | 123° |
| 2026-05-07 04:43 | 56.95121 | -130.83333 | 31252 ft | 538 kts | 123° |
| 2026-05-07 04:44 | 56.91459 | -130.71382 | 31233 ft | 538 kts | 123° |
| 2026-05-07 04:44 | 56.87811 | -130.59522 | 31253 ft | 538 kts | 123° |
| 2026-05-07 04:45 | 56.84124 | -130.47627 | 31248 ft | 537 kts | 123° |
| 2026-05-07 04:45 | 56.80433 | -130.35728 | 31215 ft | 537 kts | 123° |
| 2026-05-07 04:46 | 56.76734 | -130.23913 | 31200 ft | 537 kts | 123° |
| 2026-05-07 04:46 | 56.73037 | -130.12094 | 31216 ft | 536 kts | 124° |
| 2026-05-07 04:47 | 56.69341 | -130.00365 | 31228 ft | 537 kts | 124° |
| 2026-05-07 04:47 | 56.65605 | -129.88594 | 31223 ft | 537 kts | 124° |
| 2026-05-07 04:48 | 56.61860 | -129.76846 | 31223 ft | 537 kts | 124° |
| 2026-05-07 04:48 | 56.58108 | -129.65131 | 31195 ft | 535 kts | 124° |
| 2026-05-07 04:49 | 56.54361 | -129.53463 | 31200 ft | 536 kts | 124° |
| 2026-05-07 04:49 | 56.52471 | -129.47613 | 31365 ft | 539 kts | 124° |
| 2026-05-07 04:49 | 56.50573 | -129.41752 | 31739 ft | 538 kts | 124° |
| 2026-05-07 04:50 | 56.48683 | -129.35929 | 32188 ft | 536 kts | 124° |
| 2026-05-07 04:50 | 56.46809 | -129.30168 | 32436 ft | 538 kts | 124° |
| 2026-05-07 04:50 | 56.44889 | -129.24279 | 32767 ft | 536 kts | 124° |
| 2026-05-07 04:50 | 56.43017 | -129.18553 | 33198 ft | 534 kts | 124° |
| 2026-05-07 04:51 | 56.39206 | -129.06947 | 33186 ft | 535 kts | 125° |
| 2026-05-07 04:51 | 56.35404 | -128.95439 | 33146 ft | 533 kts | 124° |
| 2026-05-07 04:52 | 56.31616 | -128.83957 | 33150 ft | 532 kts | 125° |
| 2026-05-07 04:52 | 56.27837 | -128.72613 | 33141 ft | 531 kts | 125° |
| 2026-05-07 04:53 | 56.24028 | -128.61217 | 33156 ft | 532 kts | 125° |
| 2026-05-07 04:53 | 56.20191 | -128.49801 | 33155 ft | 532 kts | 125° |
| 2026-05-07 04:54 | 56.16377 | -128.38486 | 33137 ft | 532 kts | 125° |
| 2026-05-07 04:54 | 56.12519 | -128.27136 | 33107 ft | 533 kts | 125° |
| 2026-05-07 04:55 | 56.08659 | -128.15805 | 33113 ft | 533 kts | 125° |
| 2026-05-07 04:55 | 56.04790 | -128.04517 | 33125 ft | 530 kts | 125° |
| 2026-05-07 04:56 | 56.00933 | -127.93278 | 33142 ft | 530 kts | 125° |
| 2026-05-07 04:56 | 55.97053 | -127.82050 | 33117 ft | 532 kts | 126° |
| 2026-05-07 04:57 | 55.93182 | -127.70905 | 33130 ft | 532 kts | 126° |
| 2026-05-07 04:57 | 55.89262 | -127.59674 | 33129 ft | 535 kts | 125° |
| 2026-05-07 04:58 | 55.85372 | -127.48316 | 33085 ft | 537 kts | 125° |
| 2026-05-07 04:58 | 55.81391 | -127.37080 | 33102 ft | 537 kts | 126° |
| 2026-05-07 04:59 | 55.77402 | -127.25945 | 33096 ft | 537 kts | 126° |
| 2026-05-07 04:59 | 55.73407 | -127.14712 | 33095 ft | 538 kts | 126° |
| 2026-05-07 05:00 | 55.69399 | -127.03516 | 33093 ft | 538 kts | 126° |
| 2026-05-07 05:00 | 55.65389 | -126.92329 | 33078 ft | 538 kts | 126° |
| 2026-05-07 05:01 | 55.61364 | -126.81146 | 33076 ft | 538 kts | 126° |
| 2026-05-07 05:01 | 55.57334 | -126.69999 | 33081 ft | 538 kts | 126° |
| 2026-05-07 05:02 | 55.53317 | -126.58944 | 33080 ft | 537 kts | 126° |
| 2026-05-07 05:02 | 55.49267 | -126.47856 | 33074 ft | 537 kts | 126° |
| 2026-05-07 05:03 | 55.45206 | -126.36784 | 33067 ft | 537 kts | 126° |
| 2026-05-07 05:03 | 55.41140 | -126.25745 | 33056 ft | 536 kts | 126° |
| 2026-05-07 05:04 | 55.37102 | -126.14843 | 33054 ft | 535 kts | 126° |
| 2026-05-07 05:04 | 55.33036 | -126.03903 | 33054 ft | 535 kts | 127° |
| 2026-05-07 05:05 | 55.28949 | -125.92956 | 33061 ft | 537 kts | 126° |
| 2026-05-07 05:05 | 55.24831 | -125.81980 | 33057 ft | 539 kts | 126° |
| 2026-05-07 05:06 | 55.20618 | -125.71108 | 33044 ft | 535 kts | 128° |
| 2026-05-07 05:06 | 55.16498 | -125.60255 | 33040 ft | 540 kts | 126° |
| 2026-05-07 05:07 | 55.12399 | -125.49211 | 33021 ft | 542 kts | 126° |
| 2026-05-07 05:07 | 55.08238 | -125.38192 | 33033 ft | 544 kts | 126° |
| 2026-05-07 05:08 | 55.04029 | -125.27214 | 33033 ft | 544 kts | 127° |
| 2026-05-07 05:08 | 54.99796 | -125.16252 | 33025 ft | 544 kts | 127° |
| 2026-05-07 05:09 | 54.95564 | -125.05328 | 33016 ft | 543 kts | 127° |
| 2026-05-07 05:09 | 54.91360 | -124.94514 | 33006 ft | 542 kts | 127° |
| 2026-05-07 05:10 | 54.87129 | -124.83673 | 33011 ft | 542 kts | 127° |
| 2026-05-07 05:10 | 54.82894 | -124.72866 | 33005 ft | 541 kts | 127° |
| 2026-05-07 05:11 | 54.78647 | -124.62081 | 32998 ft | 541 kts | 127° |
| 2026-05-07 05:11 | 54.74394 | -124.51328 | 33009 ft | 541 kts | 127° |
| 2026-05-07 05:12 | 54.70129 | -124.40592 | 33006 ft | 541 kts | 127° |
| 2026-05-07 05:12 | 54.65847 | -124.29858 | 33001 ft | 543 kts | 127° |
| 2026-05-07 05:13 | 54.61572 | -124.19190 | 32986 ft | 544 kts | 127° |
| 2026-05-07 05:13 | 54.57256 | -124.08461 | 33001 ft | 545 kts | 127° |
| 2026-05-07 05:14 | 54.52918 | -123.97725 | 32994 ft | 546 kts | 127° |
| 2026-05-07 05:14 | 54.48564 | -123.86997 | 32995 ft | 547 kts | 127° |
| 2026-05-07 05:15 | 54.44194 | -123.76277 | 32986 ft | 547 kts | 127° |
| 2026-05-07 05:15 | 54.39813 | -123.65574 | 32997 ft | 547 kts | 127° |
| 2026-05-07 05:16 | 54.35451 | -123.54962 | 32993 ft | 547 kts | 127° |
| 2026-05-07 05:16 | 54.31055 | -123.44316 | 32989 ft | 547 kts | 127° |
| 2026-05-07 05:17 | 54.26645 | -123.33682 | 32981 ft | 547 kts | 127° |
| 2026-05-07 05:17 | 54.22231 | -123.23079 | 32990 ft | 547 kts | 127° |
| 2026-05-07 05:18 | 54.17810 | -123.12507 | 32987 ft | 547 kts | 127° |
| 2026-05-07 05:18 | 54.13376 | -123.01949 | 32985 ft | 547 kts | 127° |
| 2026-05-07 05:19 | 54.08931 | -122.91408 | 32991 ft | 547 kts | 127° |
| 2026-05-07 05:19 | 54.04502 | -122.80949 | 32985 ft | 547 kts | 128° |
| 2026-05-07 05:20 | 54.00039 | -122.70452 | 32981 ft | 547 kts | 128° |
| 2026-05-07 05:20 | 53.95566 | -122.59973 | 32985 ft | 547 kts | 128° |
| 2026-05-07 05:21 | 53.89044 | -122.44082 | 32966 ft | 548 kts | 121° |
| 2026-05-07 05:22 | 53.85737 | -122.32443 | 32973 ft | 549 kts | 114° |
| 2026-05-07 05:22 | 53.82643 | -122.20713 | 32996 ft | 549 kts | 114° |
| 2026-05-07 05:23 | 53.79476 | -122.08945 | 32982 ft | 549 kts | 114° |
| 2026-05-07 05:23 | 53.76267 | -121.97204 | 32955 ft | 549 kts | 115° |
| 2026-05-07 05:24 | 53.73046 | -121.85500 | 32982 ft | 549 kts | 115° |
| 2026-05-07 05:24 | 53.69811 | -121.73805 | 33028 ft | 550 kts | 114° |
| 2026-05-07 05:25 | 53.66560 | -121.62095 | 32990 ft | 550 kts | 114° |
| 2026-05-07 05:25 | 53.63303 | -121.50421 | 32978 ft | 550 kts | 114° |
| 2026-05-07 05:26 | 53.60050 | -121.38819 | 33025 ft | 551 kts | 114° |
| 2026-05-07 05:26 | 53.56766 | -121.27167 | 33017 ft | 551 kts | 114° |
| 2026-05-07 05:27 | 53.53470 | -121.15520 | 33024 ft | 550 kts | 114° |
| 2026-05-07 05:27 | 53.50721 | -121.05861 | 32985 ft | 550 kts | 114° |
| 2026-05-07 05:28 | 53.46863 | -120.92380 | 32983 ft | 551 kts | 114° |
| 2026-05-07 05:28 | 53.43533 | -120.80811 | 33049 ft | 550 kts | 114° |
| 2026-05-07 05:29 | 53.40757 | -120.71195 | 33015 ft | 550 kts | 114° |
| 2026-05-07 05:29 | 53.37409 | -120.59630 | 32998 ft | 551 kts | 114° |
| 2026-05-07 05:30 | 53.34043 | -120.48087 | 33000 ft | 551 kts | 114° |
| 2026-05-07 05:30 | 53.30670 | -120.36559 | 33000 ft | 551 kts | 114° |
| 2026-05-07 05:31 | 53.27299 | -120.25131 | 32999 ft | 551 kts | 115° |
| 2026-05-07 05:31 | 53.23898 | -120.13631 | 32992 ft | 551 kts | 115° |
| 2026-05-07 05:32 | 53.20488 | -120.02138 | 32983 ft | 552 kts | 114° |
| 2026-05-07 05:32 | 53.17059 | -119.90659 | 32990 ft | 553 kts | 114° |
| 2026-05-07 05:33 | 53.13620 | -119.79207 | 32982 ft | 551 kts | 115° |
| 2026-05-07 05:33 | 53.10209 | -119.67895 | 32980 ft | 548 kts | 115° |
| 2026-05-07 05:34 | 53.06780 | -119.56575 | 32969 ft | 546 kts | 115° |
| 2026-05-07 05:34 | 53.03348 | -119.45314 | 32973 ft | 546 kts | 115° |
| 2026-05-07 05:35 | 52.99912 | -119.34073 | 32962 ft | 545 kts | 115° |
| 2026-05-07 05:35 | 52.96465 | -119.22825 | 32954 ft | 547 kts | 115° |
| 2026-05-07 05:36 | 52.93015 | -119.11657 | 32960 ft | 548 kts | 115° |
| 2026-05-07 05:36 | 52.89533 | -119.00443 | 32955 ft | 546 kts | 115° |
| 2026-05-07 05:37 | 52.86059 | -118.89284 | 32950 ft | 544 kts | 115° |
| 2026-05-07 05:37 | 52.82579 | -118.78201 | 32950 ft | 540 kts | 116° |
| 2026-05-07 05:38 | 52.79134 | -118.67214 | 32954 ft | 537 kts | 116° |
| 2026-05-07 05:38 | 52.75711 | -118.56360 | 32937 ft | 535 kts | 116° |
| 2026-05-07 05:39 | 52.72257 | -118.45470 | 32942 ft | 535 kts | 116° |
| 2026-05-07 05:39 | 52.68787 | -118.34589 | 32949 ft | 536 kts | 116° |
| 2026-05-07 05:40 | 52.65296 | -118.23691 | 32931 ft | 537 kts | 116° |
| 2026-05-07 05:40 | 52.61796 | -118.12805 | 32950 ft | 539 kts | 116° |
| 2026-05-07 05:41 | 52.58305 | -118.01988 | 32951 ft | 529 kts | 117° |
| 2026-05-07 05:41 | 52.54883 | -117.91427 | 32950 ft | 524 kts | 117° |
| 2026-05-07 05:42 | 52.51434 | -117.80848 | 32948 ft | 524 kts | 117° |
| 2026-05-07 05:42 | 52.47998 | -117.70346 | 32931 ft | 526 kts | 117° |
| 2026-05-07 05:43 | 52.44532 | -117.59799 | 32947 ft | 526 kts | 117° |
| 2026-05-07 05:43 | 52.41044 | -117.49226 | 32920 ft | 526 kts | 117° |
| 2026-05-07 05:44 | 52.37552 | -117.38696 | 32933 ft | 526 kts | 117° |
| 2026-05-07 05:44 | 52.34052 | -117.28186 | 32947 ft | 526 kts | 117° |
| 2026-05-07 05:45 | 52.30549 | -117.17681 | 32951 ft | 521 kts | 118° |
| 2026-05-07 05:45 | 52.27107 | -117.07430 | 32929 ft | 512 kts | 118° |
| 2026-05-07 05:46 | 52.23691 | -116.97295 | 32932 ft | 512 kts | 118° |
| 2026-05-07 05:46 | 52.20246 | -116.87119 | 32938 ft | 513 kts | 118° |
| 2026-05-07 05:47 | 52.16787 | -116.76932 | 32925 ft | 514 kts | 118° |
| 2026-05-07 05:47 | 52.13307 | -116.66733 | 32929 ft | 516 kts | 118° |
| 2026-05-07 05:48 | 52.09790 | -116.56490 | 32926 ft | 519 kts | 118° |
| 2026-05-07 05:48 | 52.06281 | -116.46284 | 32921 ft | 521 kts | 118° |
| 2026-05-07 05:49 | 52.02744 | -116.36009 | 32961 ft | 520 kts | 119° |
| 2026-05-07 05:49 | 51.99248 | -116.25929 | 32913 ft | 506 kts | 119° |
| 2026-05-07 05:50 | 51.95775 | -116.15964 | 32927 ft | 508 kts | 119° |
| 2026-05-07 05:50 | 51.92287 | -116.05986 | 32928 ft | 510 kts | 119° |
| 2026-05-07 05:51 | 51.88792 | -115.96050 | 32924 ft | 511 kts | 119° |
| 2026-05-07 05:51 | 51.85271 | -115.86037 | 32912 ft | 512 kts | 119° |
| 2026-05-07 05:52 | 51.81723 | -115.75996 | 32912 ft | 514 kts | 119° |
| 2026-05-07 05:52 | 51.78171 | -115.65995 | 32903 ft | 516 kts | 120° |
| 2026-05-07 05:53 | 51.74585 | -115.55943 | 32902 ft | 517 kts | 120° |
| 2026-05-07 05:53 | 51.70991 | -115.45903 | 32898 ft | 513 kts | 120° |
| 2026-05-07 05:54 | 51.67429 | -115.35991 | 32889 ft | 511 kts | 120° |
| 2026-05-07 05:54 | 51.63843 | -115.26052 | 32895 ft | 513 kts | 120° |
| 2026-05-07 05:55 | 51.60260 | -115.16162 | 32885 ft | 515 kts | 120° |
| 2026-05-07 05:55 | 51.56633 | -115.06187 | 32889 ft | 517 kts | 120° |
| 2026-05-07 05:56 | 51.52988 | -114.96202 | 32876 ft | 518 kts | 120° |
| 2026-05-07 05:56 | 51.49327 | -114.86215 | 32876 ft | 519 kts | 120° |
| 2026-05-07 05:57 | 51.45677 | -114.76293 | 32896 ft | 520 kts | 120° |
| 2026-05-07 05:57 | 51.41996 | -114.66325 | 32927 ft | 519 kts | 121° |
| 2026-05-07 05:58 | 51.38312 | -114.56390 | 32909 ft | 516 kts | 121° |
| 2026-05-07 05:58 | 51.34640 | -114.46525 | 32924 ft | 514 kts | 121° |
| 2026-05-07 05:59 | 51.30999 | -114.36782 | 32908 ft | 512 kts | 121° |
| 2026-05-07 05:59 | 51.27338 | -114.27022 | 32911 ft | 512 kts | 121° |
| 2026-05-07 06:00 | 51.23661 | -114.17258 | 32925 ft | 513 kts | 121° |
| 2026-05-07 06:00 | 51.19957 | -114.07461 | 32914 ft | 516 kts | 121° |
| 2026-05-07 06:01 | 51.16249 | -113.97687 | 32928 ft | 518 kts | 121° |
| 2026-05-07 06:01 | 51.12508 | -113.87864 | 32923 ft | 519 kts | 121° |
| 2026-05-07 06:02 | 51.08750 | -113.78033 | 32920 ft | 519 kts | 121° |
| 2026-05-07 06:02 | 51.04994 | -113.68248 | 32911 ft | 518 kts | 121° |
| 2026-05-07 06:03 | 51.01255 | -113.58541 | 32909 ft | 517 kts | 121° |
| 2026-05-07 06:03 | 50.97498 | -113.48827 | 32902 ft | 516 kts | 121° |
| 2026-05-07 06:04 | 50.93739 | -113.39140 | 32889 ft | 515 kts | 122° |
| 2026-05-07 06:04 | 50.89980 | -113.29493 | 32885 ft | 514 kts | 122° |
| 2026-05-07 06:05 | 50.86209 | -113.19849 | 32870 ft | 514 kts | 122° |
| 2026-05-07 06:05 | 50.82430 | -113.10220 | 32886 ft | 515 kts | 122° |
| 2026-05-07 06:06 | 50.78669 | -113.00674 | 32857 ft | 515 kts | 122° |
| 2026-05-07 06:06 | 50.74875 | -112.91081 | 32856 ft | 514 kts | 122° |
| 2026-05-07 06:07 | 50.71070 | -112.81495 | 32851 ft | 513 kts | 122° |
| 2026-05-07 06:07 | 50.67271 | -112.71957 | 32856 ft | 514 kts | 122° |
| 2026-05-07 06:08 | 50.63475 | -112.62460 | 32853 ft | 515 kts | 122° |
| 2026-05-07 06:08 | 50.59646 | -112.52920 | 32847 ft | 515 kts | 122° |
| 2026-05-07 06:09 | 50.55805 | -112.43381 | 32848 ft | 516 kts | 122° |
| 2026-05-07 06:09 | 50.51975 | -112.33906 | 32889 ft | 516 kts | 123° |
| 2026-05-07 06:10 | 50.48116 | -112.24392 | 32860 ft | 515 kts | 123° |
| 2026-05-07 06:10 | 50.44269 | -112.14944 | 32870 ft | 513 kts | 123° |
| 2026-05-07 06:11 | 50.40421 | -112.05529 | 32874 ft | 512 kts | 123° |
| 2026-05-07 06:11 | 50.36573 | -111.96145 | 32874 ft | 512 kts | 123° |
| 2026-05-07 06:12 | 50.32708 | -111.86754 | 32879 ft | 513 kts | 123° |
| 2026-05-07 06:12 | 50.28857 | -111.77429 | 32889 ft | 513 kts | 123° |
| 2026-05-07 06:13 | 50.24972 | -111.68058 | 32870 ft | 514 kts | 123° |
| 2026-05-07 06:13 | 50.21064 | -111.58663 | 32908 ft | 515 kts | 123° |
| 2026-05-07 06:14 | 50.17149 | -111.49284 | 32876 ft | 515 kts | 123° |
| 2026-05-07 06:14 | 50.13238 | -111.39947 | 32879 ft | 514 kts | 123° |
| 2026-05-07 06:15 | 50.09348 | -111.30689 | 32888 ft | 513 kts | 123° |
| 2026-05-07 06:15 | 50.05450 | -111.21386 | 32872 ft | 513 kts | 121° |
| 2026-05-07 06:16 | 50.02285 | -111.11460 | 32868 ft | 513 kts | 112° |
| 2026-05-07 06:16 | 49.99565 | -111.01182 | 32886 ft | 514 kts | 112° |
| 2026-05-07 06:17 | 49.96811 | -110.90911 | 32884 ft | 515 kts | 112° |
| 2026-05-07 06:17 | 49.94488 | -110.82380 | 32868 ft | 516 kts | 112° |
| 2026-05-07 06:18 | 49.91215 | -110.70474 | 32892 ft | 516 kts | 112° |
| 2026-05-07 06:18 | 49.88842 | -110.61878 | 32896 ft | 516 kts | 112° |
| 2026-05-07 06:19 | 49.86008 | -110.51651 | 32896 ft | 517 kts | 112° |
| 2026-05-07 06:19 | 49.83177 | -110.41472 | 32897 ft | 517 kts | 112° |
| 2026-05-07 06:20 | 49.80320 | -110.31244 | 32915 ft | 517 kts | 112° |
| 2026-05-07 06:20 | 49.77457 | -110.21041 | 32887 ft | 516 kts | 112° |
| 2026-05-07 06:21 | 49.74589 | -110.10859 | 32899 ft | 515 kts | 112° |
| 2026-05-07 06:21 | 49.71720 | -110.00719 | 32906 ft | 514 kts | 112° |
| 2026-05-07 06:22 | 49.68844 | -109.90601 | 32906 ft | 514 kts | 113° |
| 2026-05-07 06:22 | 49.64528 | -109.75495 | 32907 ft | 513 kts | 113° |
| 2026-05-07 06:23 | 49.61635 | -109.65422 | 32917 ft | 513 kts | 112° |
| 2026-05-07 06:23 | 49.58749 | -109.55412 | 32914 ft | 514 kts | 113° |
| 2026-05-07 06:24 | 49.55834 | -109.45348 | 32914 ft | 514 kts | 113° |
| 2026-05-07 06:24 | 49.52910 | -109.35293 | 32916 ft | 514 kts | 113° |
| 2026-05-07 06:25 | 49.49975 | -109.25246 | 32924 ft | 514 kts | 113° |
| 2026-05-07 06:25 | 49.47030 | -109.15204 | 32924 ft | 515 kts | 113° |
| 2026-05-07 06:26 | 49.44096 | -109.05242 | 32940 ft | 515 kts | 113° |
| 2026-05-07 06:26 | 49.41131 | -108.95211 | 32927 ft | 516 kts | 113° |
| 2026-05-07 06:27 | 49.38150 | -108.85171 | 32934 ft | 516 kts | 113° |
| 2026-05-07 06:27 | 49.35158 | -108.75135 | 32930 ft | 517 kts | 113° |
| 2026-05-07 06:28 | 49.32155 | -108.65108 | 32932 ft | 517 kts | 113° |
| 2026-05-07 06:28 | 49.29166 | -108.55163 | 32939 ft | 517 kts | 113° |
| 2026-05-07 06:29 | 49.26144 | -108.45147 | 32942 ft | 518 kts | 113° |
| 2026-05-07 06:29 | 49.23108 | -108.35129 | 32942 ft | 519 kts | 113° |
| 2026-05-07 06:30 | 49.20061 | -108.25118 | 32945 ft | 519 kts | 113° |
| 2026-05-07 06:30 | 49.17001 | -108.15105 | 32949 ft | 520 kts | 113° |
| 2026-05-07 06:31 | 49.13953 | -108.05169 | 32950 ft | 520 kts | 113° |
| 2026-05-07 06:31 | 49.10876 | -107.95178 | 32948 ft | 520 kts | 113° |
| 2026-05-07 06:32 | 49.07780 | -107.85170 | 32961 ft | 522 kts | 113° |
| 2026-05-07 06:32 | 49.04672 | -107.75160 | 32952 ft | 522 kts | 113° |
| 2026-05-07 06:33 | 49.01551 | -107.65150 | 32945 ft | 523 kts | 113° |
| 2026-05-07 06:33 | 48.98435 | -107.55195 | 32947 ft | 523 kts | 113° |
| 2026-05-07 06:34 | 48.95296 | -107.45206 | 32956 ft | 523 kts | 113° |
| 2026-05-07 06:34 | 48.92148 | -107.35233 | 32944 ft | 523 kts | 113° |
| 2026-05-07 06:35 | 48.88992 | -107.25271 | 32946 ft | 523 kts | 113° |
| 2026-05-07 06:35 | 48.85830 | -107.15327 | 32949 ft | 522 kts | 113° |
| 2026-05-07 06:36 | 48.82658 | -107.05394 | 32954 ft | 522 kts | 113° |
| 2026-05-07 06:36 | 48.79501 | -106.95549 | 32959 ft | 522 kts | 113° |
| 2026-05-07 06:37 | 48.76317 | -106.85654 | 32962 ft | 522 kts | 113° |
| 2026-05-07 06:37 | 48.73116 | -106.75753 | 32981 ft | 523 kts | 113° |
| 2026-05-07 06:38 | 48.69898 | -106.65834 | 32961 ft | 524 kts | 113° |
| 2026-05-07 06:38 | 48.66675 | -106.55930 | 32963 ft | 525 kts | 113° |
| 2026-05-07 06:39 | 48.63461 | -106.46097 | 32965 ft | 525 kts | 113° |
| 2026-05-07 06:39 | 48.60212 | -106.36200 | 32965 ft | 525 kts | 113° |
| 2026-05-07 06:40 | 48.56949 | -106.26298 | 32964 ft | 526 kts | 113° |
| 2026-05-07 06:40 | 48.53678 | -106.16412 | 32977 ft | 527 kts | 112° |
| 2026-05-07 06:41 | 48.50390 | -106.06505 | 32982 ft | 528 kts | 113° |
| 2026-05-07 06:41 | 48.47111 | -105.96666 | 32981 ft | 528 kts | 113° |
| 2026-05-07 06:42 | 48.43802 | -105.86781 | 32976 ft | 529 kts | 113° |
| 2026-05-07 06:42 | 48.40478 | -105.76887 | 32968 ft | 528 kts | 113° |
| 2026-05-07 06:43 | 48.37154 | -105.67030 | 32956 ft | 528 kts | 113° |
| 2026-05-07 06:43 | 48.33813 | -105.57158 | 32949 ft | 530 kts | 113° |
| 2026-05-07 06:44 | 48.30462 | -105.47296 | 32946 ft | 530 kts | 113° |
| 2026-05-07 06:44 | 48.27097 | -105.37433 | 32947 ft | 531 kts | 113° |
| 2026-05-07 06:45 | 48.23740 | -105.27632 | 32947 ft | 531 kts | 113° |
| 2026-05-07 06:45 | 48.20351 | -105.17770 | 32967 ft | 531 kts | 113° |
| 2026-05-07 06:46 | 48.16952 | -105.07919 | 32995 ft | 533 kts | 113° |
| 2026-05-07 06:46 | 48.13535 | -104.98052 | 32994 ft | 533 kts | 113° |
| 2026-05-07 06:47 | 48.10109 | -104.88197 | 32988 ft | 534 kts | 113° |
| 2026-05-07 06:47 | 48.06670 | -104.78344 | 32984 ft | 535 kts | 113° |
| 2026-05-07 06:48 | 48.03215 | -104.68482 | 32982 ft | 535 kts | 113° |
| 2026-05-07 06:48 | 47.99778 | -104.58707 | 32986 ft | 535 kts | 113° |
| 2026-05-07 06:49 | 47.96302 | -104.48861 | 32993 ft | 537 kts | 113° |
| 2026-05-07 06:49 | 47.92812 | -104.39008 | 32991 ft | 537 kts | 113° |
| 2026-05-07 06:50 | 47.89311 | -104.29162 | 32991 ft | 537 kts | 113° |
| 2026-05-07 06:50 | 47.85801 | -104.19330 | 32970 ft | 537 kts | 113° |
| 2026-05-07 06:51 | 47.82286 | -104.09521 | 32973 ft | 537 kts | 113° |
| 2026-05-07 06:51 | 47.78782 | -103.99779 | 32992 ft | 538 kts | 113° |
| 2026-05-07 06:52 | 47.75237 | -103.89957 | 32987 ft | 539 kts | 113° |
| 2026-05-07 06:52 | 47.71681 | -103.80140 | 32984 ft | 539 kts | 113° |
| 2026-05-07 06:53 | 47.68114 | -103.70331 | 32979 ft | 540 kts | 113° |
| 2026-05-07 06:53 | 47.64562 | -103.60599 | 32974 ft | 540 kts | 113° |
| 2026-05-07 06:54 | 47.60975 | -103.50809 | 33026 ft | 540 kts | 113° |
| 2026-05-07 06:54 | 47.57380 | -103.41029 | 33002 ft | 541 kts | 113° |
| 2026-05-07 06:55 | 47.53768 | -103.31238 | 32998 ft | 541 kts | 113° |
| 2026-05-07 06:55 | 47.50127 | -103.21473 | 32989 ft | 544 kts | 115° |
| 2026-05-07 06:56 | 47.45917 | -103.12195 | 32980 ft | 547 kts | 121° |
| 2026-05-07 06:56 | 47.41528 | -103.02998 | 32978 ft | 547 kts | 121° |
| 2026-05-07 06:57 | 47.37154 | -102.93787 | 32980 ft | 548 kts | 120° |
| 2026-05-07 06:57 | 47.32783 | -102.84526 | 32984 ft | 549 kts | 120° |
| 2026-05-07 06:58 | 47.28419 | -102.75289 | 32984 ft | 549 kts | 120° |
| 2026-05-07 06:58 | 47.24045 | -102.66069 | 32977 ft | 549 kts | 120° |
| 2026-05-07 06:59 | 47.19682 | -102.56911 | 32979 ft | 550 kts | 120° |
| 2026-05-07 06:59 | 47.15285 | -102.47714 | 32976 ft | 550 kts | 120° |
| 2026-05-07 07:00 | 47.10878 | -102.38523 | 32998 ft | 551 kts | 120° |
| 2026-05-07 07:00 | 47.06454 | -102.29329 | 32982 ft | 551 kts | 120° |
| 2026-05-07 07:01 | 47.02046 | -102.20200 | 32979 ft | 551 kts | 120° |
| 2026-05-07 07:01 | 46.97607 | -102.11037 | 32982 ft | 551 kts | 120° |
| 2026-05-07 07:02 | 46.93166 | -102.01898 | 32973 ft | 551 kts | 120° |
| 2026-05-07 07:02 | 46.88715 | -101.92770 | 32984 ft | 550 kts | 120° |
| 2026-05-07 07:03 | 46.84265 | -101.83670 | 32979 ft | 551 kts | 120° |
| 2026-05-07 07:03 | 46.79798 | -101.74568 | 32986 ft | 551 kts | 120° |
| 2026-05-07 07:04 | 46.75355 | -101.65545 | 32979 ft | 551 kts | 120° |
| 2026-05-07 07:04 | 46.70871 | -101.56468 | 32993 ft | 551 kts | 121° |
| 2026-05-07 07:05 | 46.66379 | -101.47404 | 32989 ft | 551 kts | 121° |
| 2026-05-07 07:05 | 46.61882 | -101.38358 | 33046 ft | 552 kts | 121° |
| 2026-05-07 07:06 | 46.57370 | -101.29311 | 32996 ft | 552 kts | 121° |
| 2026-05-07 07:06 | 46.52843 | -101.20265 | 32999 ft | 552 kts | 121° |
| 2026-05-07 07:07 | 46.49078 | -101.12765 | 32994 ft | 552 kts | 121° |
| 2026-05-07 07:07 | 46.43809 | -101.02298 | 32985 ft | 552 kts | 121° |
| 2026-05-07 07:08 | 46.40004 | -100.94761 | 32988 ft | 552 kts | 121° |
| 2026-05-07 07:08 | 46.35248 | -100.86099 | 33046 ft | 556 kts | 127° |
| 2026-05-07 07:09 | 46.30057 | -100.77762 | 32989 ft | 558 kts | 128° |
| 2026-05-07 07:09 | 46.24845 | -100.69433 | 32987 ft | 558 kts | 128° |
| 2026-05-07 07:10 | 46.19660 | -100.61094 | 32987 ft | 558 kts | 128° |
| 2026-05-07 07:10 | 46.14485 | -100.52752 | 32984 ft | 558 kts | 128° |
| 2026-05-07 07:11 | 46.09338 | -100.44476 | 32984 ft | 558 kts | 128° |
| 2026-05-07 07:11 | 46.04142 | -100.36154 | 32976 ft | 558 kts | 128° |
| 2026-05-07 07:12 | 45.98936 | -100.27846 | 32989 ft | 559 kts | 128° |
| 2026-05-07 07:12 | 45.93718 | -100.19544 | 32978 ft | 559 kts | 128° |
| 2026-05-07 07:13 | 45.88496 | -100.11262 | 32974 ft | 559 kts | 128° |
| 2026-05-07 07:13 | 45.83268 | -100.02994 | 32981 ft | 559 kts | 128° |
| 2026-05-07 07:14 | 45.78033 | -99.94738 | 32974 ft | 559 kts | 128° |
| 2026-05-07 07:14 | 45.72829 | -99.86556 | 32975 ft | 560 kts | 128° |
| 2026-05-07 07:15 | 45.67563 | -99.78301 | 32991 ft | 561 kts | 129° |
| 2026-05-07 07:15 | 45.62315 | -99.70103 | 32989 ft | 561 kts | 129° |
| 2026-05-07 07:16 | 45.57034 | -99.61875 | 32987 ft | 561 kts | 129° |
| 2026-05-07 07:16 | 45.51754 | -99.53674 | 32986 ft | 561 kts | 129° |
| 2026-05-07 07:17 | 45.46470 | -99.45491 | 32993 ft | 561 kts | 129° |
| 2026-05-07 07:17 | 45.41178 | -99.37321 | 32983 ft | 560 kts | 129° |
| 2026-05-07 07:18 | 45.35890 | -99.29177 | 33012 ft | 560 kts | 129° |
| 2026-05-07 07:18 | 45.30625 | -99.21098 | 32993 ft | 559 kts | 129° |
| 2026-05-07 07:19 | 45.25335 | -99.13003 | 32991 ft | 559 kts | 129° |
| 2026-05-07 07:19 | 45.20040 | -99.04923 | 32973 ft | 558 kts | 129° |
| 2026-05-07 07:20 | 45.14750 | -98.96873 | 33001 ft | 558 kts | 130° |
| 2026-05-07 07:20 | 45.09450 | -98.88832 | 32992 ft | 558 kts | 130° |
| 2026-05-07 07:21 | 45.04148 | -98.80810 | 33007 ft | 558 kts | 130° |
| 2026-05-07 07:21 | 44.98844 | -98.72813 | 32991 ft | 557 kts | 130° |
| 2026-05-07 07:22 | 44.93538 | -98.64835 | 32988 ft | 556 kts | 130° |
| 2026-05-07 07:22 | 44.88279 | -98.56950 | 32990 ft | 555 kts | 131° |
| 2026-05-07 07:23 | 44.82993 | -98.49044 | 32986 ft | 554 kts | 131° |
| 2026-05-07 07:23 | 44.77694 | -98.41142 | 32997 ft | 554 kts | 131° |
| 2026-05-07 07:24 | 44.72386 | -98.33250 | 33038 ft | 555 kts | 131° |
| 2026-05-07 07:24 | 44.67067 | -98.25366 | 32974 ft | 555 kts | 132° |
| 2026-05-07 07:25 | 44.59089 | -98.13582 | 32983 ft | 554 kts | 132° |
| 2026-05-07 07:26 | 44.53792 | -98.05784 | 32980 ft | 554 kts | 132° |
| 2026-05-07 07:26 | 44.48458 | -97.97955 | 32986 ft | 554 kts | 132° |
| 2026-05-07 07:27 | 44.43133 | -97.90159 | 32984 ft | 554 kts | 133° |
| 2026-05-07 07:27 | 44.37802 | -97.82380 | 32995 ft | 552 kts | 133° |
| 2026-05-07 07:28 | 44.32507 | -97.74674 | 32990 ft | 551 kts | 133° |
| 2026-05-07 07:28 | 44.27194 | -97.66962 | 33013 ft | 552 kts | 133° |
| 2026-05-07 07:29 | 44.21850 | -97.59226 | 33034 ft | 553 kts | 133° |
| 2026-05-07 07:29 | 44.16516 | -97.51526 | 32974 ft | 552 kts | 133° |
| 2026-05-07 07:30 | 44.11219 | -97.43903 | 32995 ft | 551 kts | 133° |
| 2026-05-07 07:30 | 44.05884 | -97.36246 | 32984 ft | 550 kts | 133° |
| 2026-05-07 07:31 | 44.00549 | -97.28608 | 32993 ft | 550 kts | 134° |
| 2026-05-07 07:31 | 43.95238 | -97.21027 | 32966 ft | 550 kts | 134° |
| 2026-05-07 07:32 | 43.89894 | -97.13419 | 32972 ft | 550 kts | 134° |
| 2026-05-07 07:32 | 43.84539 | -97.05814 | 32978 ft | 551 kts | 134° |
| 2026-05-07 07:33 | 43.79177 | -96.98222 | 32963 ft | 551 kts | 134° |
| 2026-05-07 07:33 | 43.73807 | -96.90639 | 33002 ft | 552 kts | 134° |
| 2026-05-07 07:34 | 43.68459 | -96.83103 | 33053 ft | 552 kts | 134° |
| 2026-05-07 07:34 | 43.63092 | -96.75525 | 32980 ft | 551 kts | 134° |
| 2026-05-07 07:35 | 43.57889 | -96.67790 | 32978 ft | 548 kts | 132° |
| 2026-05-07 07:35 | 43.52757 | -96.60026 | 32977 ft | 547 kts | 132° |
| 2026-05-07 07:36 | 43.47606 | -96.52308 | 33004 ft | 546 kts | 133° |
| 2026-05-07 07:36 | 43.42439 | -96.44639 | 33035 ft | 546 kts | 134° |
| 2026-05-07 07:37 | 43.37295 | -96.37039 | 33011 ft | 546 kts | 134° |
| 2026-05-07 07:37 | 43.32108 | -96.29395 | 33011 ft | 546 kts | 134° |
| 2026-05-07 07:38 | 43.26926 | -96.21773 | 33022 ft | 546 kts | 134° |
| 2026-05-07 07:38 | 43.21766 | -96.14202 | 32984 ft | 546 kts | 134° |
| 2026-05-07 07:39 | 43.16574 | -96.06603 | 33024 ft | 547 kts | 134° |
| 2026-05-07 07:39 | 43.11351 | -95.98982 | 32985 ft | 547 kts | 135° |
| 2026-05-07 07:40 | 43.06138 | -95.91395 | 32938 ft | 546 kts | 135° |
| 2026-05-07 07:40 | 43.00930 | -95.83834 | 32979 ft | 546 kts | 135° |
| 2026-05-07 07:41 | 42.95754 | -95.76340 | 32997 ft | 546 kts | 135° |
| 2026-05-07 07:41 | 42.90544 | -95.68817 | 33031 ft | 545 kts | 135° |
| 2026-05-07 07:42 | 42.85321 | -95.61295 | 32978 ft | 544 kts | 135° |
| 2026-05-07 07:42 | 42.80124 | -95.53831 | 32985 ft | 542 kts | 135° |
| 2026-05-07 07:43 | 42.74923 | -95.46379 | 32993 ft | 542 kts | 136° |
| 2026-05-07 07:43 | 42.69734 | -95.38964 | 32994 ft | 541 kts | 136° |
| 2026-05-07 07:44 | 42.64570 | -95.31604 | 33028 ft | 541 kts | 136° |
| 2026-05-07 07:44 | 42.59369 | -95.24210 | 33000 ft | 541 kts | 136° |
| 2026-05-07 07:45 | 42.54168 | -95.16833 | 33000 ft | 540 kts | 136° |
| 2026-05-07 07:45 | 42.48976 | -95.09488 | 32962 ft | 539 kts | 136° |
| 2026-05-07 07:46 | 42.43782 | -95.02158 | 33011 ft | 539 kts | 136° |
| 2026-05-07 07:46 | 42.38581 | -94.94854 | 33062 ft | 539 kts | 137° |
| 2026-05-07 07:47 | 42.33364 | -94.87554 | 33056 ft | 540 kts | 137° |
| 2026-05-07 07:47 | 42.28168 | -94.80298 | 33033 ft | 540 kts | 137° |
| 2026-05-07 07:48 | 42.22946 | -94.73021 | 33050 ft | 540 kts | 137° |
| 2026-05-07 07:48 | 42.17720 | -94.65754 | 33055 ft | 540 kts | 137° |
| 2026-05-07 07:49 | 42.12508 | -94.58528 | 33057 ft | 540 kts | 137° |
| 2026-05-07 07:49 | 42.07234 | -94.51231 | 33044 ft | 540 kts | 138° |
| 2026-05-07 07:50 | 42.02023 | -94.44042 | 33038 ft | 540 kts | 138° |
| 2026-05-07 07:50 | 41.96772 | -94.36818 | 33032 ft | 539 kts | 139° |
| 2026-05-07 07:51 | 41.91520 | -94.29608 | 33015 ft | 539 kts | 139° |
| 2026-05-07 07:51 | 41.86263 | -94.22407 | 33009 ft | 539 kts | 139° |
| 2026-05-07 07:52 | 41.81031 | -94.15258 | 33020 ft | 539 kts | 139° |
| 2026-05-07 07:52 | 41.75768 | -94.08090 | 33001 ft | 539 kts | 139° |
| 2026-05-07 07:53 | 41.70499 | -94.00927 | 32988 ft | 539 kts | 139° |
| 2026-05-07 07:53 | 41.65229 | -93.93782 | 33022 ft | 538 kts | 139° |
| 2026-05-07 07:54 | 41.59973 | -93.86673 | 33038 ft | 537 kts | 140° |
| 2026-05-07 07:54 | 41.54741 | -93.79612 | 33064 ft | 537 kts | 140° |
| 2026-05-07 07:55 | 41.49477 | -93.72524 | 33001 ft | 537 kts | 140° |
| 2026-05-07 07:55 | 41.44118 | -93.65633 | 33059 ft | 530 kts | 146° |
| 2026-05-07 07:56 | 41.38142 | -93.60045 | 33054 ft | 520 kts | 155° |
| 2026-05-07 07:56 | 41.32996 | -93.55895 | 33053 ft | 521 kts | 155° |
| 2026-05-07 07:57 | 41.25814 | -93.50036 | 33040 ft | 520 kts | 155° |
| 2026-05-07 07:57 | 41.19657 | -93.44967 | 33050 ft | 521 kts | 155° |
| 2026-05-07 07:58 | 41.14525 | -93.40741 | 33052 ft | 521 kts | 155° |
| 2026-05-07 07:58 | 41.08346 | -93.35665 | 33048 ft | 522 kts | 155° |
| 2026-05-07 07:59 | 41.02164 | -93.30601 | 33042 ft | 522 kts | 155° |
| 2026-05-07 07:59 | 40.95984 | -93.25551 | 33054 ft | 522 kts | 155° |
| 2026-05-07 08:00 | 40.89804 | -93.20513 | 33046 ft | 522 kts | 155° |
| 2026-05-07 08:00 | 40.83662 | -93.15516 | 33044 ft | 521 kts | 155° |
| 2026-05-07 08:01 | 40.77480 | -93.10498 | 33073 ft | 521 kts | 155° |
| 2026-05-07 08:01 | 40.71296 | -93.05491 | 33086 ft | 522 kts | 155° |
| 2026-05-07 08:02 | 40.65092 | -93.00479 | 33094 ft | 523 kts | 156° |
| 2026-05-07 08:02 | 40.58881 | -92.95469 | 33081 ft | 523 kts | 156° |
| 2026-05-07 08:03 | 40.52710 | -92.90503 | 33090 ft | 523 kts | 156° |
| 2026-05-07 08:03 | 40.46496 | -92.85514 | 33080 ft | 523 kts | 156° |
| 2026-05-07 08:04 | 40.40282 | -92.80535 | 33086 ft | 522 kts | 156° |
| 2026-05-07 08:04 | 40.37173 | -92.78050 | 33269 ft | 524 kts | 156° |
| 2026-05-07 08:04 | 40.34065 | -92.75566 | 33686 ft | 522 kts | 156° |
| 2026-05-07 08:04 | 40.30972 | -92.73095 | 34161 ft | 519 kts | 157° |
| 2026-05-07 08:05 | 40.27890 | -92.70635 | 34525 ft | 516 kts | 157° |
| 2026-05-07 08:05 | 40.24829 | -92.68197 | 34849 ft | 515 kts | 157° |
| 2026-05-07 08:05 | 40.21764 | -92.65761 | 34994 ft | 516 kts | 158° |
| 2026-05-07 08:06 | 40.15631 | -92.60891 | 35077 ft | 514 kts | 158° |
| 2026-05-07 08:06 | 40.09759 | -92.55612 | 35102 ft | 518 kts | 152° |
| 2026-05-07 08:07 | 40.04064 | -92.49855 | 35118 ft | 517 kts | 151° |
| 2026-05-07 08:07 | 39.98365 | -92.44105 | 35081 ft | 516 kts | 152° |
| 2026-05-07 08:08 | 39.92672 | -92.38420 | 35101 ft | 516 kts | 152° |
| 2026-05-07 08:08 | 39.86956 | -92.32751 | 35113 ft | 516 kts | 152° |
| 2026-05-07 08:09 | 39.81236 | -92.27089 | 35111 ft | 517 kts | 153° |
| 2026-05-07 08:09 | 39.75536 | -92.21456 | 35093 ft | 517 kts | 153° |
| 2026-05-07 08:10 | 39.69800 | -92.15799 | 35107 ft | 518 kts | 153° |
| 2026-05-07 08:10 | 39.64041 | -92.10132 | 35115 ft | 519 kts | 153° |
| 2026-05-07 08:11 | 39.58280 | -92.04474 | 35109 ft | 519 kts | 154° |
| 2026-05-07 08:11 | 39.52552 | -91.98857 | 35085 ft | 519 kts | 154° |
| 2026-05-07 08:12 | 39.46795 | -91.93225 | 35116 ft | 519 kts | 154° |
| 2026-05-07 08:12 | 39.41021 | -91.87592 | 35117 ft | 520 kts | 155° |
| 2026-05-07 08:13 | 39.35243 | -91.81969 | 35112 ft | 520 kts | 155° |
| 2026-05-07 08:13 | 39.29453 | -91.76341 | 35104 ft | 520 kts | 155° |
| 2026-05-07 08:14 | 39.23668 | -91.70729 | 35108 ft | 520 kts | 155° |
| 2026-05-07 08:14 | 39.17883 | -91.65131 | 35112 ft | 520 kts | 155° |
| 2026-05-07 08:15 | 39.12091 | -91.59540 | 35110 ft | 520 kts | 155° |
| 2026-05-07 08:15 | 39.06308 | -91.53964 | 35110 ft | 518 kts | 156° |
| 2026-05-07 08:16 | 39.00577 | -91.48448 | 35112 ft | 517 kts | 158° |
| 2026-05-07 08:16 | 38.94819 | -91.42924 | 35117 ft | 515 kts | 158° |
| 2026-05-07 08:17 | 38.89071 | -91.37423 | 35115 ft | 514 kts | 158° |
| 2026-05-07 08:17 | 38.83334 | -91.31937 | 35113 ft | 512 kts | 159° |
| 2026-05-07 08:18 | 38.77621 | -91.26489 | 35114 ft | 511 kts | 159° |
| 2026-05-07 08:18 | 38.71945 | -91.21090 | 35116 ft | 511 kts | 159° |
| 2026-05-07 08:19 | 38.66236 | -91.15672 | 35125 ft | 510 kts | 159° |
| 2026-05-07 08:19 | 38.60533 | -91.10261 | 35122 ft | 508 kts | 161° |
| 2026-05-07 08:20 | 38.54843 | -91.04879 | 35121 ft | 508 kts | 161° |
| 2026-05-07 08:20 | 38.49154 | -90.99512 | 35129 ft | 508 kts | 161° |
| 2026-05-07 08:21 | 38.43491 | -90.94178 | 35130 ft | 509 kts | 161° |
| 2026-05-07 08:21 | 38.37797 | -90.88825 | 35117 ft | 509 kts | 161° |
| 2026-05-07 08:22 | 38.32079 | -90.83458 | 35119 ft | 509 kts | 161° |
| 2026-05-07 08:22 | 38.26373 | -90.78114 | 35116 ft | 509 kts | 161° |
| 2026-05-07 08:23 | 38.20655 | -90.72766 | 35124 ft | 509 kts | 161° |
| 2026-05-07 08:23 | 38.14947 | -90.67442 | 35070 ft | 508 kts | 161° |
| 2026-05-07 08:24 | 38.09252 | -90.62139 | 35114 ft | 507 kts | 161° |
| 2026-05-07 08:24 | 38.03580 | -90.56874 | 35120 ft | 508 kts | 161° |
| 2026-05-07 08:25 | 37.97876 | -90.51587 | 35122 ft | 509 kts | 161° |
| 2026-05-07 08:25 | 37.92157 | -90.46292 | 35085 ft | 508 kts | 161° |
| 2026-05-07 08:26 | 37.83579 | -90.38371 | 35094 ft | 509 kts | 161° |
| 2026-05-07 08:26 | 37.77859 | -90.33103 | 35082 ft | 509 kts | 162° |
| 2026-05-07 08:27 | 37.72125 | -90.27831 | 35095 ft | 509 kts | 162° |
| 2026-05-07 08:27 | 37.66424 | -90.22602 | 35094 ft | 508 kts | 162° |
| 2026-05-07 08:28 | 37.60656 | -90.17465 | 35109 ft | 506 kts | 163° |
| 2026-05-07 08:28 | 37.54866 | -90.12389 | 35106 ft | 507 kts | 163° |
| 2026-05-07 08:29 | 37.49107 | -90.07333 | 35107 ft | 507 kts | 162° |
| 2026-05-07 08:29 | 37.43322 | -90.02240 | 35057 ft | 507 kts | 162° |
| 2026-05-07 08:30 | 37.37532 | -89.97148 | 35106 ft | 507 kts | 162° |
| 2026-05-07 08:30 | 37.31739 | -89.92071 | 35106 ft | 508 kts | 162° |
| 2026-05-07 08:31 | 37.25924 | -89.86982 | 35098 ft | 509 kts | 162° |
| 2026-05-07 08:31 | 37.20142 | -89.81929 | 35041 ft | 510 kts | 162° |
| 2026-05-07 08:32 | 37.14319 | -89.76849 | 35081 ft | 510 kts | 162° |
| 2026-05-07 08:32 | 37.08479 | -89.71768 | 35097 ft | 511 kts | 162° |
| 2026-05-07 08:33 | 37.02635 | -89.66692 | 35093 ft | 512 kts | 162° |
| 2026-05-07 08:33 | 36.96774 | -89.61608 | 35051 ft | 512 kts | 162° |
| 2026-05-07 08:34 | 36.90956 | -89.56570 | 35073 ft | 512 kts | 162° |
| 2026-05-07 08:34 | 36.85100 | -89.51512 | 35103 ft | 512 kts | 162° |
| 2026-05-07 08:35 | 36.79239 | -89.46461 | 35093 ft | 512 kts | 162° |
| 2026-05-07 08:35 | 36.73364 | -89.41403 | 35041 ft | 512 kts | 162° |
| 2026-05-07 08:36 | 36.67503 | -89.36363 | 35079 ft | 512 kts | 162° |
| 2026-05-07 08:36 | 36.61658 | -89.31350 | 35079 ft | 512 kts | 162° |
| 2026-05-07 08:37 | 36.55785 | -89.26322 | 35080 ft | 512 kts | 162° |
| 2026-05-07 08:37 | 36.49911 | -89.21302 | 35060 ft | 512 kts | 162° |
| 2026-05-07 08:38 | 36.44046 | -89.16294 | 35061 ft | 511 kts | 162° |
| 2026-05-07 08:38 | 36.38177 | -89.11297 | 35066 ft | 510 kts | 162° |
| 2026-05-07 08:39 | 36.32358 | -89.06352 | 35074 ft | 509 kts | 162° |
| 2026-05-07 08:39 | 36.26512 | -89.01393 | 35065 ft | 509 kts | 162° |
| 2026-05-07 08:40 | 36.20670 | -88.96443 | 35033 ft | 507 kts | 161° |
| 2026-05-07 08:40 | 36.14851 | -88.91519 | 35052 ft | 506 kts | 161° |
| 2026-05-07 08:41 | 36.09075 | -88.86645 | 35069 ft | 505 kts | 162° |
| 2026-05-07 08:41 | 36.03269 | -88.81752 | 35061 ft | 505 kts | 161° |
| 2026-05-07 08:42 | 35.97451 | -88.76859 | 35062 ft | 505 kts | 161° |
| 2026-05-07 08:42 | 35.91638 | -88.71977 | 35061 ft | 505 kts | 161° |
| 2026-05-07 08:43 | 35.85824 | -88.67103 | 35066 ft | 505 kts | 162° |
| 2026-05-07 08:43 | 35.80055 | -88.62275 | 35070 ft | 504 kts | 162° |
| 2026-05-07 08:44 | 35.74243 | -88.57421 | 35004 ft | 504 kts | 161° |
| 2026-05-07 08:44 | 35.68436 | -88.52578 | 35053 ft | 503 kts | 161° |
| 2026-05-07 08:45 | 35.62630 | -88.47745 | 35054 ft | 504 kts | 161° |
| 2026-05-07 08:45 | 35.56810 | -88.42911 | 35050 ft | 505 kts | 161° |
| 2026-05-07 08:46 | 35.51007 | -88.38107 | 35054 ft | 507 kts | 161° |
| 2026-05-07 08:46 | 35.45144 | -88.33270 | 35049 ft | 508 kts | 160° |
| 2026-05-07 08:47 | 35.40218 | -88.29209 | 35030 ft | 510 kts | 160° |
| 2026-05-07 08:47 | 35.34356 | -88.24382 | 35024 ft | 511 kts | 160° |
| 2026-05-07 08:48 | 35.28440 | -88.19517 | 35021 ft | 512 kts | 160° |
| 2026-05-07 08:48 | 35.22511 | -88.14649 | 34957 ft | 512 kts | 160° |
| 2026-05-07 08:49 | 35.16585 | -88.09794 | 35030 ft | 512 kts | 160° |
| 2026-05-07 08:49 | 35.10652 | -88.04943 | 35017 ft | 514 kts | 160° |
| 2026-05-07 08:50 | 35.04704 | -88.00090 | 35024 ft | 515 kts | 160° |
| 2026-05-07 08:50 | 34.98760 | -87.95247 | 35020 ft | 516 kts | 160° |
| 2026-05-07 08:51 | 34.92793 | -87.90392 | 35006 ft | 515 kts | 160° |
| 2026-05-07 08:51 | 34.86834 | -87.85550 | 35008 ft | 514 kts | 160° |
| 2026-05-07 08:52 | 34.80891 | -87.80733 | 35008 ft | 513 kts | 160° |
| 2026-05-07 08:52 | 34.74984 | -87.75955 | 35007 ft | 512 kts | 160° |
| 2026-05-07 08:53 | 34.69058 | -87.71168 | 34978 ft | 510 kts | 160° |
| 2026-05-07 08:53 | 34.63169 | -87.66416 | 35003 ft | 506 kts | 160° |
| 2026-05-07 08:54 | 34.57294 | -87.61692 | 34996 ft | 505 kts | 160° |
| 2026-05-07 08:54 | 34.51442 | -87.56991 | 34994 ft | 504 kts | 160° |
| 2026-05-07 08:55 | 34.45601 | -87.52310 | 34980 ft | 503 kts | 160° |
| 2026-05-07 08:55 | 34.39764 | -87.47634 | 34963 ft | 501 kts | 159° |
| 2026-05-07 08:56 | 34.33978 | -87.43010 | 34964 ft | 502 kts | 159° |
| 2026-05-07 08:56 | 34.28144 | -87.38354 | 34963 ft | 502 kts | 159° |
| 2026-05-07 08:57 | 34.22301 | -87.33700 | 34966 ft | 503 kts | 159° |
| 2026-05-07 08:57 | 34.16444 | -87.29041 | 34928 ft | 504 kts | 159° |
| 2026-05-07 08:58 | 34.10627 | -87.24420 | 34962 ft | 504 kts | 159° |
| 2026-05-07 08:58 | 34.04720 | -87.19736 | 34975 ft | 505 kts | 159° |
| 2026-05-07 08:59 | 33.98876 | -87.15111 | 34944 ft | 506 kts | 159° |
| 2026-05-07 08:59 | 33.92979 | -87.10452 | 34934 ft | 507 kts | 159° |
| 2026-05-07 09:00 | 33.87087 | -87.05803 | 34916 ft | 506 kts | 158° |
| 2026-05-07 09:00 | 33.81199 | -87.01160 | 34916 ft | 506 kts | 158° |
| 2026-05-07 09:01 | 33.75300 | -86.96518 | 34918 ft | 506 kts | 158° |
| 2026-05-07 09:01 | 33.69443 | -86.91953 | 34928 ft | 502 kts | 161° |
| 2026-05-07 09:02 | 33.63276 | -86.88365 | 34917 ft | 482 kts | 172° |
| 2026-05-07 09:02 | 33.56949 | -86.85850 | 34951 ft | 478 kts | 173° |
| 2026-05-07 09:03 | 33.50630 | -86.83338 | 34953 ft | 479 kts | 173° |
| 2026-05-07 09:03 | 33.44301 | -86.80787 | 34942 ft | 479 kts | 173° |
| 2026-05-07 09:04 | 33.38022 | -86.78243 | 34932 ft | 479 kts | 173° |
| 2026-05-07 09:04 | 33.31703 | -86.75684 | 34920 ft | 479 kts | 173° |
| 2026-05-07 09:05 | 33.25383 | -86.73131 | 34925 ft | 479 kts | 173° |
| 2026-05-07 09:05 | 33.19059 | -86.70581 | 34928 ft | 479 kts | 173° |
| 2026-05-07 09:06 | 33.12732 | -86.68035 | 34925 ft | 479 kts | 173° |
| 2026-05-07 09:06 | 33.06458 | -86.65512 | 34904 ft | 479 kts | 172° |
| 2026-05-07 09:07 | 33.00140 | -86.62976 | 34870 ft | 480 kts | 172° |
| 2026-05-07 09:07 | 32.93802 | -86.60436 | 34881 ft | 480 kts | 172° |
| 2026-05-07 09:08 | 32.87460 | -86.57899 | 34882 ft | 481 kts | 172° |
| 2026-05-07 09:08 | 32.81107 | -86.55358 | 34852 ft | 481 kts | 171° |
| 2026-05-07 09:09 | 32.74742 | -86.52821 | 34876 ft | 483 kts | 171° |
| 2026-05-07 09:09 | 32.68392 | -86.50294 | 34888 ft | 484 kts | 171° |
| 2026-05-07 09:10 | 32.61992 | -86.47748 | 34881 ft | 486 kts | 171° |
| 2026-05-07 09:10 | 32.55574 | -86.45198 | 34849 ft | 487 kts | 170° |
| 2026-05-07 09:11 | 32.49141 | -86.42646 | 34883 ft | 488 kts | 170° |
| 2026-05-07 09:11 | 32.42683 | -86.40089 | 34881 ft | 490 kts | 170° |
| 2026-05-07 09:12 | 32.36197 | -86.37524 | 34883 ft | 491 kts | 170° |
| 2026-05-07 09:12 | 32.29750 | -86.34977 | 34919 ft | 492 kts | 170° |
| 2026-05-07 09:13 | 32.23347 | -86.31982 | 34913 ft | 503 kts | 159° |
| 2026-05-07 09:13 | 32.17461 | -86.27324 | 34906 ft | 518 kts | 146° |
| 2026-05-07 09:14 | 32.12058 | -86.21666 | 34908 ft | 521 kts | 144° |
| 2026-05-07 09:14 | 32.06648 | -86.15959 | 34902 ft | 521 kts | 144° |
| 2026-05-07 09:15 | 32.01196 | -86.10307 | 34931 ft | 521 kts | 144° |
| 2026-05-07 09:15 | 31.95751 | -86.04713 | 34957 ft | 523 kts | 144° |
| 2026-05-07 09:16 | 31.90260 | -85.99081 | 34967 ft | 524 kts | 144° |
| 2026-05-07 09:16 | 31.84739 | -85.93418 | 34967 ft | 526 kts | 144° |
| 2026-05-07 09:17 | 31.79220 | -85.87766 | 34953 ft | 527 kts | 144° |
| 2026-05-07 09:17 | 31.73906 | -85.81884 | 34941 ft | 532 kts | 138° |
| 2026-05-07 09:18 | 31.68998 | -85.75364 | 34918 ft | 533 kts | 135° |
| 2026-05-07 09:18 | 31.64148 | -85.68778 | 34914 ft | 532 kts | 136° |
| 2026-05-07 09:19 | 31.59229 | -85.62292 | 34918 ft | 531 kts | 137° |
| 2026-05-07 09:19 | 31.54268 | -85.55873 | 34935 ft | 530 kts | 137° |
| 2026-05-07 09:20 | 31.49300 | -85.49475 | 34973 ft | 530 kts | 137° |
| 2026-05-07 09:20 | 31.44373 | -85.43128 | 34984 ft | 530 kts | 137° |
| 2026-05-07 09:21 | 31.39416 | -85.36742 | 34984 ft | 530 kts | 137° |
| 2026-05-07 09:21 | 31.34438 | -85.30344 | 34967 ft | 530 kts | 137° |
| 2026-05-07 09:22 | 31.29487 | -85.23988 | 34963 ft | 531 kts | 137° |
| 2026-05-07 09:22 | 31.24501 | -85.17599 | 34963 ft | 532 kts | 137° |
| 2026-05-07 09:23 | 31.19512 | -85.11217 | 34955 ft | 533 kts | 137° |
| 2026-05-07 09:23 | 31.14510 | -85.04830 | 34933 ft | 533 kts | 137° |
| 2026-05-07 09:24 | 31.09497 | -84.98438 | 34959 ft | 533 kts | 137° |
| 2026-05-07 09:24 | 31.04479 | -84.92051 | 34959 ft | 534 kts | 137° |
| 2026-05-07 09:25 | 30.99451 | -84.85662 | 34990 ft | 534 kts | 137° |
| 2026-05-07 09:25 | 30.94448 | -84.79315 | 34986 ft | 534 kts | 137° |
| 2026-05-07 09:26 | 30.89418 | -84.72945 | 34954 ft | 534 kts | 137° |
| 2026-05-07 09:26 | 30.84368 | -84.66560 | 34959 ft | 534 kts | 136° |
| 2026-05-07 09:27 | 30.79333 | -84.60206 | 34974 ft | 534 kts | 136° |
| 2026-05-07 09:28 | 30.71768 | -84.50677 | 34980 ft | 534 kts | 136° |
| 2026-05-07 09:28 | 30.66721 | -84.44333 | 34983 ft | 534 kts | 136° |
| 2026-05-07 09:29 | 30.61699 | -84.38030 | 34981 ft | 535 kts | 137° |
| 2026-05-07 09:29 | 30.56644 | -84.31697 | 34998 ft | 535 kts | 137° |
| 2026-05-07 09:30 | 30.51577 | -84.25358 | 34993 ft | 535 kts | 136° |
| 2026-05-07 09:30 | 30.46507 | -84.19026 | 34999 ft | 535 kts | 136° |
| 2026-05-07 09:31 | 30.41458 | -84.12730 | 34997 ft | 535 kts | 136° |
| 2026-05-07 09:31 | 30.36224 | -84.06605 | 34982 ft | 529 kts | 148° |
| 2026-05-07 09:32 | 30.29977 | -84.02358 | 35003 ft | 520 kts | 157° |
| 2026-05-07 09:32 | 30.23582 | -83.98402 | 34977 ft | 522 kts | 156° |
| 2026-05-07 09:33 | 30.17220 | -83.94295 | 34993 ft | 524 kts | 155° |
| 2026-05-07 09:33 | 30.10895 | -83.90102 | 35012 ft | 525 kts | 155° |
| 2026-05-07 09:34 | 30.04556 | -83.85895 | 35006 ft | 526 kts | 155° |
| 2026-05-07 09:34 | 29.98197 | -83.81695 | 35009 ft | 527 kts | 155° |
| 2026-05-07 09:35 | 29.91851 | -83.77516 | 34999 ft | 528 kts | 155° |
| 2026-05-07 09:35 | 29.85455 | -83.73308 | 35011 ft | 529 kts | 155° |
| 2026-05-07 09:36 | 29.80140 | -83.69817 | 35010 ft | 529 kts | 155° |
| 2026-05-07 09:36 | 29.73725 | -83.65612 | 35001 ft | 530 kts | 155° |
| 2026-05-07 09:37 | 29.67310 | -83.61413 | 34978 ft | 530 kts | 155° |
| 2026-05-07 09:37 | 29.60898 | -83.57219 | 35001 ft | 529 kts | 155° |
| 2026-05-07 09:38 | 29.54546 | -83.53070 | 35012 ft | 528 kts | 155° |
| 2026-05-07 09:38 | 29.48160 | -83.48907 | 35006 ft | 527 kts | 155° |
| 2026-05-07 09:39 | 29.41781 | -83.44754 | 35010 ft | 527 kts | 156° |
| 2026-05-07 09:39 | 29.35398 | -83.40603 | 35007 ft | 526 kts | 156° |
| 2026-05-07 09:40 | 29.29029 | -83.36467 | 35010 ft | 526 kts | 156° |
| 2026-05-07 09:40 | 29.22651 | -83.32490 | 35018 ft | 522 kts | 160° |
| 2026-05-07 09:41 | 29.16029 | -83.29140 | 35019 ft | 519 kts | 163° |
| 2026-05-07 09:41 | 29.09358 | -83.25935 | 35015 ft | 519 kts | 163° |
| 2026-05-07 09:42 | 29.02728 | -83.22655 | 35005 ft | 519 kts | 162° |
| 2026-05-07 09:42 | 28.96119 | -83.19316 | 35011 ft | 519 kts | 161° |
| 2026-05-07 09:43 | 28.89524 | -83.15973 | 35025 ft | 519 kts | 162° |
| 2026-05-07 09:43 | 28.82908 | -83.12631 | 35021 ft | 520 kts | 162° |
| 2026-05-07 09:44 | 28.76276 | -83.09292 | 35006 ft | 520 kts | 161° |
| 2026-05-07 09:44 | 28.69685 | -83.05978 | 35023 ft | 521 kts | 161° |
| 2026-05-07 09:45 | 28.63053 | -83.02649 | 35023 ft | 521 kts | 161° |
| 2026-05-07 09:45 | 28.56416 | -82.99320 | 35024 ft | 521 kts | 161° |
| 2026-05-07 09:46 | 28.49763 | -82.95989 | 35024 ft | 521 kts | 161° |
| 2026-05-07 09:46 | 28.43117 | -82.92665 | 35015 ft | 521 kts | 161° |
| 2026-05-07 09:47 | 28.36482 | -82.89351 | 35022 ft | 520 kts | 161° |
| 2026-05-07 09:47 | 28.29854 | -82.86045 | 35027 ft | 520 kts | 161° |
| 2026-05-07 09:48 | 28.23274 | -82.82768 | 35027 ft | 520 kts | 161° |
| 2026-05-07 09:48 | 28.16649 | -82.79473 | 35007 ft | 519 kts | 161° |
| 2026-05-07 09:49 | 28.10028 | -82.76183 | 35034 ft | 519 kts | 161° |
| 2026-05-07 09:49 | 28.03406 | -82.72898 | 35054 ft | 519 kts | 161° |
| 2026-05-07 09:50 | 27.96608 | -82.70471 | 35056 ft | 508 kts | 175° |
| 2026-05-07 09:50 | 27.89622 | -82.69296 | 35053 ft | 507 kts | 177° |
| 2026-05-07 09:51 | 27.82625 | -82.68094 | 35035 ft | 508 kts | 175° |
| 2026-05-07 09:51 | 27.75690 | -82.66752 | 35039 ft | 509 kts | 175° |
| 2026-05-07 09:52 | 27.68709 | -82.65360 | 35040 ft | 509 kts | 175° |
| 2026-05-07 09:52 | 27.61723 | -82.63981 | 35032 ft | 509 kts | 175° |
| 2026-05-07 09:53 | 27.54737 | -82.62610 | 35029 ft | 509 kts | 175° |
| 2026-05-07 09:53 | 27.47828 | -82.60942 | 35035 ft | 512 kts | 170° |
| 2026-05-07 09:54 | 27.40933 | -82.58816 | 35042 ft | 513 kts | 169° |
| 2026-05-07 09:54 | 27.34036 | -82.56694 | 35041 ft | 513 kts | 170° |
| 2026-05-07 09:55 | 27.27137 | -82.54652 | 35026 ft | 512 kts | 170° |
| 2026-05-07 09:55 | 27.20288 | -82.52654 | 35034 ft | 511 kts | 170° |
| 2026-05-07 09:56 | 27.13404 | -82.50646 | 35039 ft | 511 kts | 170° |
| 2026-05-07 09:56 | 27.06522 | -82.48636 | 35046 ft | 510 kts | 170° |
| 2026-05-07 09:57 | 26.99654 | -82.46632 | 35045 ft | 510 kts | 170° |
| 2026-05-07 09:57 | 26.92802 | -82.44561 | 35036 ft | 511 kts | 164° |
| 2026-05-07 09:57 | 26.89609 | -82.42758 | 35037 ft | 520 kts | 146° |
| 2026-05-07 09:58 | 26.86853 | -82.40131 | 35061 ft | 520 kts | 140° |
| 2026-05-07 09:58 | 26.81657 | -82.34882 | 34440 ft | 533 kts | 141° |
| 2026-05-07 09:58 | 26.78864 | -82.32131 | 33590 ft | 531 kts | 141° |
| 2026-05-07 09:59 | 26.76137 | -82.29486 | 32721 ft | 522 kts | 142° |
| 2026-05-07 09:59 | 26.73407 | -82.26866 | 31867 ft | 513 kts | 142° |
| 2026-05-07 09:59 | 26.70709 | -82.24292 | 30996 ft | 506 kts | 143° |
| 2026-05-07 09:59 | 26.68041 | -82.21751 | 30266 ft | 502 kts | 143° |
| 2026-05-07 10:00 | 26.65376 | -82.19213 | 29643 ft | 507 kts | 142° |
| 2026-05-07 10:00 | 26.62664 | -82.16631 | 29018 ft | 517 kts | 142° |
| 2026-05-07 10:00 | 26.59911 | -82.14005 | 28411 ft | 520 kts | 142° |
| 2026-05-07 10:00 | 26.57166 | -82.11381 | 27810 ft | 515 kts | 142° |
| 2026-05-07 10:01 | 26.54449 | -82.08786 | 27236 ft | 510 kts | 142° |
| 2026-05-07 10:01 | 26.51768 | -82.06215 | 26666 ft | 505 kts | 141° |
| 2026-05-07 10:01 | 26.49154 | -82.03618 | 26105 ft | 501 kts | 141° |
| 2026-05-07 10:01 | 26.46612 | -82.01039 | 25556 ft | 497 kts | 140° |
| 2026-05-07 10:02 | 26.44066 | -81.98443 | 24996 ft | 494 kts | 140° |
| 2026-05-07 10:02 | 26.41565 | -81.95899 | 24334 ft | 481 kts | 140° |
| 2026-05-07 10:02 | 26.39115 | -81.93420 | 23705 ft | 468 kts | 140° |
| 2026-05-07 10:02 | 26.36732 | -81.91019 | 23086 ft | 455 kts | 140° |
| 2026-05-07 10:03 | 26.34418 | -81.88695 | 22535 ft | 441 kts | 140° |
| 2026-05-07 10:03 | 26.32164 | -81.86435 | 22002 ft | 429 kts | 140° |
| 2026-05-07 10:03 | 26.29975 | -81.84240 | 21469 ft | 419 kts | 140° |
| 2026-05-07 10:03 | 26.27813 | -81.82074 | 21203 ft | 419 kts | 140° |
| 2026-05-07 10:04 | 26.25633 | -81.79891 | 21066 ft | 421 kts | 140° |
| 2026-05-07 10:04 | 26.23575 | -81.77601 | 21026 ft | 417 kts | 128° |
| 2026-05-07 10:04 | 26.22134 | -81.74834 | 20777 ft | 411 kts | 115° |
| 2026-05-07 10:04 | 26.20948 | -81.71947 | 20398 ft | 409 kts | 115° |
| 2026-05-07 10:05 | 26.19765 | -81.69072 | 19947 ft | 408 kts | 115° |
| 2026-05-07 10:05 | 26.18568 | -81.66210 | 19512 ft | 406 kts | 115° |
| 2026-05-07 10:05 | 26.17362 | -81.63379 | 19140 ft | 403 kts | 115° |
| 2026-05-07 10:05 | 26.16151 | -81.60572 | 18792 ft | 400 kts | 115° |
| 2026-05-07 10:06 | 26.14946 | -81.57798 | 18438 ft | 396 kts | 115° |
| 2026-05-07 10:06 | 26.13748 | -81.55048 | 18049 ft | 393 kts | 115° |
| 2026-05-07 10:06 | 26.12574 | -81.52359 | 17656 ft | 389 kts | 115° |
| 2026-05-07 10:06 | 26.11397 | -81.49661 | 17269 ft | 386 kts | 115° |
| 2026-05-07 10:07 | 26.10230 | -81.46987 | 16888 ft | 382 kts | 115° |
| 2026-05-07 10:07 | 26.09073 | -81.44338 | 16505 ft | 379 kts | 115° |
| 2026-05-07 10:07 | 26.07925 | -81.41714 | 16122 ft | 375 kts | 115° |
| 2026-05-07 10:07 | 26.06793 | -81.39127 | 15907 ft | 364 kts | 115° |
| 2026-05-07 10:08 | 26.05718 | -81.36663 | 15764 ft | 344 kts | 115° |
| 2026-05-07 10:08 | 26.04698 | -81.34324 | 15492 ft | 329 kts | 115° |
| 2026-05-07 10:08 | 26.03726 | -81.32092 | 15110 ft | 319 kts | 115° |
| 2026-05-07 10:08 | 26.02773 | -81.29905 | 14701 ft | 310 kts | 115° |
| 2026-05-07 10:09 | 26.01841 | -81.27767 | 14292 ft | 306 kts | 115° |
| 2026-05-07 10:09 | 26.00919 | -81.25652 | 13833 ft | 301 kts | 115° |
| 2026-05-07 10:09 | 26.00011 | -81.23570 | 13210 ft | 299 kts | 115° |
| 2026-05-07 10:09 | 25.99106 | -81.21497 | 12604 ft | 295 kts | 115° |
| 2026-05-07 10:10 | 25.98220 | -81.19468 | 12166 ft | 287 kts | 115° |
| 2026-05-07 10:10 | 25.97359 | -81.17497 | 11842 ft | 280 kts | 115° |
| 2026-05-07 10:10 | 25.96502 | -81.15537 | 11563 ft | 285 kts | 115° |
| 2026-05-07 10:10 | 25.95641 | -81.13569 | 11262 ft | 288 kts | 115° |
| 2026-05-07 10:11 | 25.94766 | -81.11570 | 10989 ft | 286 kts | 115° |
| 2026-05-07 10:11 | 25.93899 | -81.09591 | 10767 ft | 282 kts | 115° |
| 2026-05-07 10:11 | 25.93047 | -81.07647 | 10543 ft | 277 kts | 115° |
| 2026-05-07 10:11 | 25.92208 | -81.05734 | 10340 ft | 273 kts | 115° |
| 2026-05-07 10:12 | 25.91382 | -81.03852 | 10140 ft | 269 kts | 115° |
| 2026-05-07 10:12 | 25.90609 | -81.01945 | 9944 ft | 271 kts | 112° |
| 2026-05-07 10:12 | 25.89875 | -81.00002 | 9730 ft | 274 kts | 112° |
| 2026-05-07 10:12 | 25.89144 | -80.98068 | 9514 ft | 275 kts | 112° |
| 2026-05-07 10:13 | 25.88403 | -80.96114 | 9290 ft | 273 kts | 112° |
| 2026-05-07 10:13 | 25.87671 | -80.94198 | 9096 ft | 265 kts | 112° |
| 2026-05-07 10:13 | 25.86958 | -80.92335 | 8855 ft | 260 kts | 112° |
| 2026-05-07 10:13 | 25.86251 | -80.90492 | 8636 ft | 259 kts | 112° |
| 2026-05-07 10:14 | 25.85541 | -80.88644 | 8414 ft | 259 kts | 112° |
| 2026-05-07 10:14 | 25.84833 | -80.86802 | 8177 ft | 259 kts | 112° |
| 2026-05-07 10:14 | 25.84124 | -80.84956 | 7950 ft | 259 kts | 113° |
| 2026-05-07 10:14 | 25.83423 | -80.83134 | 7724 ft | 260 kts | 113° |
| 2026-05-07 10:15 | 25.82710 | -80.81283 | 7476 ft | 261 kts | 113° |
| 2026-05-07 10:15 | 25.81999 | -80.79436 | 7228 ft | 261 kts | 113° |
| 2026-05-07 10:15 | 25.81283 | -80.77577 | 6987 ft | 261 kts | 113° |
| 2026-05-07 10:15 | 25.80573 | -80.75735 | 6740 ft | 255 kts | 113° |
| 2026-05-07 10:16 | 25.79892 | -80.73969 | 6514 ft | 246 kts | 114° |
| 2026-05-07 10:16 | 25.79225 | -80.72240 | 6260 ft | 242 kts | 114° |
| 2026-05-07 10:16 | 25.78570 | -80.70521 | 6029 ft | 240 kts | 110° |
| 2026-05-07 10:16 | 25.78321 | -80.68716 | 5785 ft | 237 kts | 90° |
| 2026-05-07 10:17 | 25.78400 | -80.66875 | 5583 ft | 241 kts | 86° |
| 2026-05-07 10:17 | 25.78501 | -80.65010 | 5360 ft | 242 kts | 87° |
| 2026-05-07 10:17 | 25.78588 | -80.63195 | 5127 ft | 234 kts | 87° |
| 2026-05-07 10:17 | 25.78676 | -80.61428 | 4887 ft | 225 kts | 86° |
| 2026-05-07 10:18 | 25.78769 | -80.59727 | 4687 ft | 220 kts | 86° |
| 2026-05-07 10:18 | 25.78860 | -80.58013 | 4466 ft | 224 kts | 87° |
| 2026-05-07 10:18 | 25.78949 | -80.56270 | 4242 ft | 227 kts | 87° |
| 2026-05-07 10:18 | 25.79038 | -80.54514 | 4008 ft | 229 kts | 87° |
| 2026-05-07 10:19 | 25.79126 | -80.52754 | 3769 ft | 226 kts | 87° |
| 2026-05-07 10:19 | 25.79204 | -80.51061 | 3513 ft | 214 kts | 88° |
| 2026-05-07 10:19 | 25.79272 | -80.49462 | 3287 ft | 202 kts | 88° |
| 2026-05-07 10:19 | 25.79335 | -80.47923 | 3032 ft | 196 kts | 89° |
| 2026-05-07 10:20 | 25.79397 | -80.46444 | 2780 ft | 190 kts | 89° |
| 2026-05-07 10:20 | 25.79457 | -80.44977 | 2560 ft | 189 kts | 89° |
| 2026-05-07 10:20 | 25.79516 | -80.43553 | 2312 ft | 179 kts | 89° |
| 2026-05-07 10:20 | 25.79571 | -80.42230 | 2089 ft | 170 kts | 89° |
| 2026-05-07 10:21 | 25.79624 | -80.40938 | 1857 ft | 167 kts | 89° |
| 2026-05-07 10:21 | 25.79677 | -80.39639 | 1649 ft | 169 kts | 89° |
| 2026-05-07 10:21 | 25.79731 | -80.38334 | 1430 ft | 169 kts | 90° |
| 2026-05-07 10:21 | 25.79784 | -80.37029 | 1213 ft | 169 kts | 89° |
| 2026-05-07 10:22 | 25.79839 | -80.35729 | 986 ft | 168 kts | 89° |
| 2026-05-07 10:22 | 25.79896 | -80.34434 | 762 ft | 167 kts | 88° |
| 2026-05-07 10:22 | 25.79945 | -80.33144 | 587 ft | 167 kts | 88° |
| 2026-05-07 10:22 | 25.79995 | -80.31852 | 385 ft | 168 kts | 87° |
| 2026-05-07 10:23 | 25.80053 | -80.30589 | 196 ft | 159 kts | 88° |
| 2026-05-07 10:23 | 25.80096 | -80.29406 | 23 ft | 145 kts | 88° |
| 2026-05-07 10:23 | 25.80142 | -80.28394 | 19 ft | 108 kts | 87° |
| 2026-05-07 10:23 | 25.80162 | -80.27935 | 18 ft | 73 kts | 87° |
| 2026-05-07 10:24 | 25.80178 | -80.27671 | 19 ft | 8 kts | 68° |
| 2026-05-07 10:24 | 25.80223 | -80.27629 | 20 ft | 9 kts | 19° |
| 2026-05-07 10:24 | 25.80273 | -80.27632 | 21 ft | 3 kts | 354° |
| 2026-05-07 10:24 | 25.80295 | -80.27634 | 22 ft | 3 kts | 354° |
| 2026-05-07 10:25 | 25.80318 | -80.27637 | 20 ft | 3 kts | 355° |
| 2026-05-07 10:25 | 25.80352 | -80.27639 | 20 ft | 6 kts | 357° |
| 2026-05-07 10:25 | 25.80404 | -80.27641 | 20 ft | 9 kts | 358° |
| 2026-05-07 10:25 | 25.80449 | -80.27643 | 22 ft | 5 kts | 357° |
| 2026-05-07 10:26 | 25.80482 | -80.27657 | 21 ft | 5 kts | 323° |
| 2026-05-07 10:26 | 25.80497 | -80.27693 | 24 ft | 5 kts | 280° |
| 2026-05-07 10:26 | 25.80500 | -80.27733 | 20 ft | 5 kts | 270° |
| 2026-05-07 10:26 | 25.80499 | -80.27775 | 20 ft | 5 kts | 267° |
| 2026-05-07 10:27 | 25.80497 | -80.27816 | 20 ft | 5 kts | 267° |
| 2026-05-07 10:27 | 25.80496 | -80.27857 | 20 ft | 5 kts | 268° |
| 2026-05-07 10:27 | 25.80494 | -80.27898 | 20 ft | 5 kts | 267° |
| 2026-05-07 10:27 | 25.80492 | -80.27939 | 20 ft | 5 kts | 267° |
| 2026-05-07 10:28 | 25.80491 | -80.27980 | 20 ft | 5 kts | 267° |
| 2026-05-07 10:28 | 25.80489 | -80.28021 | 20 ft | 5 kts | 267° |
| 2026-05-07 10:28 | 25.80488 | -80.28062 | 20 ft | 5 kts | 268° |
| 2026-05-07 10:28 | 25.80486 | -80.28102 | 20 ft | 5 kts | 268° |
| 2026-05-07 10:29 | 25.80484 | -80.28143 | 20 ft | 5 kts | 267° |
| 2026-05-07 10:29 | 25.80483 | -80.28184 | 20 ft | 5 kts | 267° |
| 2026-05-07 10:29 | 25.80481 | -80.28225 | 20 ft | 5 kts | 267° |
| 2026-05-07 10:30 | 25.80477 | -80.28307 | 20 ft | 5 kts | 267° |
| 2026-05-07 10:30 | 25.80476 | -80.28348 | 20 ft | 5 kts | 267° |
| 2026-05-07 10:30 | 25.80474 | -80.28389 | 20 ft | 5 kts | 267° |
| 2026-05-07 10:30 | 25.80472 | -80.28430 | 19 ft | 5 kts | 268° |
| 2026-05-07 10:31 | 25.80471 | -80.28471 | 19 ft | 5 kts | 267° |
| 2026-05-07 10:31 | 25.80469 | -80.28512 | 19 ft | 5 kts | 267° |
| 2026-05-07 10:31 | 25.80468 | -80.28553 | 22 ft | 5 kts | 268° |
| 2026-05-07 10:31 | 25.80466 | -80.28595 | 19 ft | 5 kts | 266° |
| 2026-05-07 10:32 | 25.80463 | -80.28636 | 19 ft | 5 kts | 266° |
| 2026-05-07 10:32 | 25.80460 | -80.28689 | 20 ft | 11 kts | 267° |
| 2026-05-07 10:32 | 25.80457 | -80.28777 | 19 ft | 12 kts | 268° |
| 2026-05-07 10:32 | 25.80454 | -80.28866 | 19 ft | 12 kts | 268° |
| 2026-05-07 10:33 | 25.80451 | -80.28955 | 19 ft | 12 kts | 266° |
| 2026-05-07 10:33 | 25.80446 | -80.29045 | 19 ft | 12 kts | 267° |
| 2026-05-07 10:33 | 25.80443 | -80.29134 | 19 ft | 12 kts | 268° |
| 2026-05-07 10:33 | 25.80441 | -80.29195 | 20 ft | 6 kts | 268° |
| 2026-05-07 10:34 | 25.80440 | -80.29244 | 20 ft | 6 kts | 269° |
| 2026-05-07 10:34 | 25.80436 | -80.29293 | 20 ft | 6 kts | 265° |
| 2026-05-07 10:34 | 25.80433 | -80.29342 | 19 ft | 5 kts | 266° |
| 2026-05-07 10:34 | 25.80443 | -80.29371 | 21 ft | 4 kts | 309° |
| 2026-05-07 10:35 | 25.80468 | -80.29383 | 19 ft | 4 kts | 349° |
| 2026-05-07 10:35 | 25.80496 | -80.29386 | 19 ft | 4 kts | 356° |
| 2026-05-07 10:35 | 25.80512 | -80.29387 | 19 ft | 0 kts | 357° |